<?xml version='1.0' encoding='UTF-8'?>
<gpx version="1.1" creator="https://www.komoot.de" xmlns="http://www.topografix.com/GPX/1/1" xmlns:xsi="http://www.w3.org/2001/XMLSchema-instance" xsi:schemaLocation="http://www.topografix.com/GPX/1/1 http://www.topografix.com/GPX/1/1/gpx.xsd">
  <metadata>
    <name>34_400SchupfEickenKaist</name>
    <author>
      <link href="https://www.komoot.de">
        <text>komoot</text>
        <type>text/html</type>
      </link>
    </author>
  </metadata>
  <trk>
    <name>34_400SchupfEickenKaist</name>
    <trkseg>
      <trkpt lat="47.541576" lon="7.870664">
        <ele>341.796709</ele>
        <time>2021-11-07T09:46:23.387Z</time>
      </trkpt>
      <trkpt lat="47.541576" lon="7.870664">
        <ele>341.796709</ele>
        <time>2021-11-07T09:46:23.426Z</time>
      </trkpt>
      <trkpt lat="47.541410" lon="7.870791">
        <ele>341.796709</ele>
        <time>2021-11-07T09:46:27.913Z</time>
      </trkpt>
      <trkpt lat="47.540933" lon="7.871187">
        <ele>341.796709</ele>
        <time>2021-11-07T09:46:40.797Z</time>
      </trkpt>
      <trkpt lat="47.540894" lon="7.871220">
        <ele>341.796709</ele>
        <time>2021-11-07T09:46:41.992Z</time>
      </trkpt>
      <trkpt lat="47.540693" lon="7.871390">
        <ele>342.022747</ele>
        <time>2021-11-07T09:46:47.583Z</time>
      </trkpt>
      <trkpt lat="47.540463" lon="7.871584">
        <ele>342.563283</ele>
        <time>2021-11-07T09:46:54.133Z</time>
      </trkpt>
      <trkpt lat="47.540265" lon="7.871808">
        <ele>343.072095</ele>
        <time>2021-11-07T09:46:59.863Z</time>
      </trkpt>
      <trkpt lat="47.540216" lon="7.871851">
        <ele>343.188409</ele>
        <time>2021-11-07T09:47:01.403Z</time>
      </trkpt>
      <trkpt lat="47.540034" lon="7.871970">
        <ele>343.594703</ele>
        <time>2021-11-07T09:47:06.062Z</time>
      </trkpt>
      <trkpt lat="47.539930" lon="7.872041">
        <ele>343.828572</ele>
        <time>2021-11-07T09:47:08.649Z</time>
      </trkpt>
      <trkpt lat="47.539841" lon="7.872151">
        <ele>344.065295</ele>
        <time>2021-11-07T09:47:11.680Z</time>
      </trkpt>
      <trkpt lat="47.539678" lon="7.872430">
        <ele>344.573998</ele>
        <time>2021-11-07T09:47:17.202Z</time>
      </trkpt>
      <trkpt lat="47.539222" lon="7.873416">
        <ele>345.863347</ele>
        <time>2021-11-07T09:47:34.743Z</time>
      </trkpt>
      <trkpt lat="47.538278" lon="7.874319">
        <ele>347.064006</ele>
        <time>2021-11-07T09:47:54.397Z</time>
      </trkpt>
      <trkpt lat="47.537716" lon="7.874966">
        <ele>348.041740</ele>
        <time>2021-11-07T09:48:08.372Z</time>
      </trkpt>
      <trkpt lat="47.537261" lon="7.875237">
        <ele>348.828780</ele>
        <time>2021-11-07T09:48:17.889Z</time>
      </trkpt>
      <trkpt lat="47.537182" lon="7.875293">
        <ele>348.969335</ele>
        <time>2021-11-07T09:48:19.877Z</time>
      </trkpt>
      <trkpt lat="47.536921" lon="7.875537">
        <ele>349.464658</ele>
        <time>2021-11-07T09:48:25.844Z</time>
      </trkpt>
      <trkpt lat="47.536757" lon="7.875759">
        <ele>349.821211</ele>
        <time>2021-11-07T09:48:30.446Z</time>
      </trkpt>
      <trkpt lat="47.536632" lon="7.875912">
        <ele>350.081450</ele>
        <time>2021-11-07T09:48:33.614Z</time>
      </trkpt>
      <trkpt lat="47.536444" lon="7.876177">
        <ele>350.882210</ele>
        <time>2021-11-07T09:48:40.576Z</time>
      </trkpt>
      <trkpt lat="47.535851" lon="7.877319">
        <ele>355.175714</ele>
        <time>2021-11-07T09:49:11.890Z</time>
      </trkpt>
      <trkpt lat="47.535770" lon="7.877432">
        <ele>355.666880</ele>
        <time>2021-11-07T09:49:16.070Z</time>
      </trkpt>
      <trkpt lat="47.535635" lon="7.877484">
        <ele>356.282612</ele>
        <time>2021-11-07T09:49:21.937Z</time>
      </trkpt>
      <trkpt lat="47.535551" lon="7.877487">
        <ele>356.653509</ele>
        <time>2021-11-07T09:49:23.845Z</time>
      </trkpt>
      <trkpt lat="47.535322" lon="7.877590">
        <ele>357.709930</ele>
        <time>2021-11-07T09:49:33.897Z</time>
      </trkpt>
      <trkpt lat="47.535088" lon="7.877742">
        <ele>358.958502</ele>
        <time>2021-11-07T09:49:41.729Z</time>
      </trkpt>
      <trkpt lat="47.534855" lon="7.878090">
        <ele>360.703509</ele>
        <time>2021-11-07T09:49:53.712Z</time>
      </trkpt>
      <trkpt lat="47.534778" lon="7.878270">
        <ele>361.462207</ele>
        <time>2021-11-07T09:50:01.019Z</time>
      </trkpt>
      <trkpt lat="47.534825" lon="7.878414">
        <ele>362.031682</ele>
        <time>2021-11-07T09:50:03.645Z</time>
      </trkpt>
      <trkpt lat="47.534946" lon="7.878790">
        <ele>363.514712</ele>
        <time>2021-11-07T09:50:15.693Z</time>
      </trkpt>
      <trkpt lat="47.534908" lon="7.878975">
        <ele>364.203205</ele>
        <time>2021-11-07T09:50:19.751Z</time>
      </trkpt>
      <trkpt lat="47.534616" lon="7.879490">
        <ele>366.597682</ele>
        <time>2021-11-07T09:50:36.698Z</time>
      </trkpt>
      <trkpt lat="47.533892" lon="7.880353">
        <ele>369.678574</ele>
        <time>2021-11-07T09:51:04.437Z</time>
      </trkpt>
      <trkpt lat="47.533606" lon="7.880961">
        <ele>371.051715</ele>
        <time>2021-11-07T09:51:16.746Z</time>
      </trkpt>
      <trkpt lat="47.533374" lon="7.881639">
        <ele>372.460235</ele>
        <time>2021-11-07T09:51:27.792Z</time>
      </trkpt>
      <trkpt lat="47.533014" lon="7.882949">
        <ele>372.879140</ele>
        <time>2021-11-07T09:51:45.707Z</time>
      </trkpt>
      <trkpt lat="47.532859" lon="7.883508">
        <ele>372.988871</ele>
        <time>2021-11-07T09:51:51.584Z</time>
      </trkpt>
      <trkpt lat="47.532713" lon="7.884122">
        <ele>373.107076</ele>
        <time>2021-11-07T09:51:57.282Z</time>
      </trkpt>
      <trkpt lat="47.532699" lon="7.884224">
        <ele>373.111292</ele>
        <time>2021-11-07T09:51:58.236Z</time>
      </trkpt>
      <trkpt lat="47.532670" lon="7.884773">
        <ele>372.576618</ele>
        <time>2021-11-07T09:52:02.730Z</time>
      </trkpt>
      <trkpt lat="47.532658" lon="7.884989">
        <ele>372.366186</ele>
        <time>2021-11-07T09:52:04.341Z</time>
      </trkpt>
      <trkpt lat="47.532650" lon="7.885569">
        <ele>371.802924</ele>
        <time>2021-11-07T09:52:08.844Z</time>
      </trkpt>
      <trkpt lat="47.532505" lon="7.887120">
        <ele>370.236926</ele>
        <time>2021-11-07T09:52:20.795Z</time>
      </trkpt>
      <trkpt lat="47.532288" lon="7.887728">
        <ele>369.449264</ele>
        <time>2021-11-07T09:52:25.972Z</time>
      </trkpt>
      <trkpt lat="47.532011" lon="7.888896">
        <ele>368.031400</ele>
        <time>2021-11-07T09:52:35.202Z</time>
      </trkpt>
      <trkpt lat="47.531843" lon="7.889349">
        <ele>367.477561</ele>
        <time>2021-11-07T09:52:39.238Z</time>
      </trkpt>
      <trkpt lat="47.531560" lon="7.889776">
        <ele>367.353419</ele>
        <time>2021-11-07T09:52:44.178Z</time>
      </trkpt>
      <trkpt lat="47.531265" lon="7.889937">
        <ele>367.256810</ele>
        <time>2021-11-07T09:52:48.146Z</time>
      </trkpt>
      <trkpt lat="47.531076" lon="7.890029">
        <ele>367.195676</ele>
        <time>2021-11-07T09:52:50.988Z</time>
      </trkpt>
      <trkpt lat="47.530606" lon="7.890373">
        <ele>367.034576</ele>
        <time>2021-11-07T09:52:58.837Z</time>
      </trkpt>
      <trkpt lat="47.530322" lon="7.890690">
        <ele>366.959641</ele>
        <time>2021-11-07T09:53:04.830Z</time>
      </trkpt>
      <trkpt lat="47.529972" lon="7.891210">
        <ele>367.462082</ele>
        <time>2021-11-07T09:53:13.992Z</time>
      </trkpt>
      <trkpt lat="47.529714" lon="7.891609">
        <ele>367.840132</ele>
        <time>2021-11-07T09:53:21.325Z</time>
      </trkpt>
      <trkpt lat="47.529695" lon="7.891638">
        <ele>367.867784</ele>
        <time>2021-11-07T09:53:22.312Z</time>
      </trkpt>
      <trkpt lat="47.529235" lon="7.892158">
        <ele>368.454273</ele>
        <time>2021-11-07T09:53:33.245Z</time>
      </trkpt>
      <trkpt lat="47.528331" lon="7.892682">
        <ele>369.604833</ele>
        <time>2021-11-07T09:53:51.948Z</time>
      </trkpt>
      <trkpt lat="47.528003" lon="7.892732">
        <ele>370.020699</ele>
        <time>2021-11-07T09:53:57.654Z</time>
      </trkpt>
      <trkpt lat="47.527498" lon="7.892650">
        <ele>370.661432</ele>
        <time>2021-11-07T09:54:07.127Z</time>
      </trkpt>
      <trkpt lat="47.527011" lon="7.893061">
        <ele>371.762154</ele>
        <time>2021-11-07T09:54:20.319Z</time>
      </trkpt>
      <trkpt lat="47.526709" lon="7.893617">
        <ele>373.066046</ele>
        <time>2021-11-07T09:54:32.851Z</time>
      </trkpt>
      <trkpt lat="47.526504" lon="7.894030">
        <ele>374.002693</ele>
        <time>2021-11-07T09:54:43.032Z</time>
      </trkpt>
      <trkpt lat="47.526451" lon="7.893983">
        <ele>374.169866</ele>
        <time>2021-11-07T09:54:44.421Z</time>
      </trkpt>
      <trkpt lat="47.526401" lon="7.893964">
        <ele>374.309557</ele>
        <time>2021-11-07T09:54:45.239Z</time>
      </trkpt>
      <trkpt lat="47.526335" lon="7.893960">
        <ele>374.488313</ele>
        <time>2021-11-07T09:54:47.313Z</time>
      </trkpt>
      <trkpt lat="47.526257" lon="7.894278">
        <ele>375.106554</ele>
        <time>2021-11-07T09:54:53.525Z</time>
      </trkpt>
      <trkpt lat="47.525725" lon="7.895110">
        <ele>376.826554</ele>
        <time>2021-11-07T09:55:12.607Z</time>
      </trkpt>
      <trkpt lat="47.525603" lon="7.895265">
        <ele>377.137260</ele>
        <time>2021-11-07T09:55:18.223Z</time>
      </trkpt>
      <trkpt lat="47.525631" lon="7.895442">
        <ele>377.374539</ele>
        <time>2021-11-07T09:55:21.072Z</time>
      </trkpt>
      <trkpt lat="47.525631" lon="7.895583">
        <ele>377.558575</ele>
        <time>2021-11-07T09:55:22.264Z</time>
      </trkpt>
      <trkpt lat="47.525622" lon="7.895944">
        <ele>378.030082</ele>
        <time>2021-11-07T09:55:29.699Z</time>
      </trkpt>
      <trkpt lat="47.525590" lon="7.896117">
        <ele>378.264204</ele>
        <time>2021-11-07T09:55:31.252Z</time>
      </trkpt>
      <trkpt lat="47.525518" lon="7.896336">
        <ele>378.582127</ele>
        <time>2021-11-07T09:55:36.060Z</time>
      </trkpt>
      <trkpt lat="47.524834" lon="7.897636">
        <ele>379.391983</ele>
        <time>2021-11-07T09:55:52.983Z</time>
      </trkpt>
      <trkpt lat="47.524617" lon="7.898216">
        <ele>379.406757</ele>
        <time>2021-11-07T09:55:59.156Z</time>
      </trkpt>
      <trkpt lat="47.524360" lon="7.898951">
        <ele>379.425198</ele>
        <time>2021-11-07T09:56:06.697Z</time>
      </trkpt>
      <trkpt lat="47.524309" lon="7.899115">
        <ele>379.469554</ele>
        <time>2021-11-07T09:56:08.611Z</time>
      </trkpt>
      <trkpt lat="47.523896" lon="7.900001">
        <ele>380.310584</ele>
        <time>2021-11-07T09:56:20.534Z</time>
      </trkpt>
      <trkpt lat="47.523861" lon="7.900049">
        <ele>380.365770</ele>
        <time>2021-11-07T09:56:21.513Z</time>
      </trkpt>
      <trkpt lat="47.523890" lon="7.900131">
        <ele>380.438082</ele>
        <time>2021-11-07T09:56:22.468Z</time>
      </trkpt>
      <trkpt lat="47.523945" lon="7.900256">
        <ele>380.554632</ele>
        <time>2021-11-07T09:56:24.059Z</time>
      </trkpt>
      <trkpt lat="47.523989" lon="7.900340">
        <ele>380.637680</ele>
        <time>2021-11-07T09:56:25.109Z</time>
      </trkpt>
      <trkpt lat="47.523957" lon="7.900371">
        <ele>380.681917</ele>
        <time>2021-11-07T09:56:25.814Z</time>
      </trkpt>
      <trkpt lat="47.523878" lon="7.900445">
        <ele>380.790057</ele>
        <time>2021-11-07T09:56:27.931Z</time>
      </trkpt>
      <trkpt lat="47.523739" lon="7.900557">
        <ele>380.973122</ele>
        <time>2021-11-07T09:56:30.862Z</time>
      </trkpt>
      <trkpt lat="47.523648" lon="7.900606">
        <ele>381.085138</ele>
        <time>2021-11-07T09:56:33.041Z</time>
      </trkpt>
      <trkpt lat="47.523620" lon="7.900698">
        <ele>381.163971</ele>
        <time>2021-11-07T09:56:35.004Z</time>
      </trkpt>
      <trkpt lat="47.523567" lon="7.900820">
        <ele>381.277297</ele>
        <time>2021-11-07T09:56:37.102Z</time>
      </trkpt>
      <trkpt lat="47.523433" lon="7.901043">
        <ele>381.514581</ele>
        <time>2021-11-07T09:56:42.345Z</time>
      </trkpt>
      <trkpt lat="47.523340" lon="7.901197">
        <ele>382.065495</ele>
        <time>2021-11-07T09:56:46.388Z</time>
      </trkpt>
      <trkpt lat="47.523036" lon="7.901580">
        <ele>383.641616</ele>
        <time>2021-11-07T09:56:58.084Z</time>
      </trkpt>
      <trkpt lat="47.522688" lon="7.901843">
        <ele>385.184429</ele>
        <time>2021-11-07T09:57:10.401Z</time>
      </trkpt>
      <trkpt lat="47.522554" lon="7.901999">
        <ele>385.857517</ele>
        <time>2021-11-07T09:57:16.723Z</time>
      </trkpt>
      <trkpt lat="47.522260" lon="7.902356">
        <ele>387.358891</ele>
        <time>2021-11-07T09:57:29.096Z</time>
      </trkpt>
      <trkpt lat="47.522132" lon="7.902476">
        <ele>387.957123</ele>
        <time>2021-11-07T09:57:33.654Z</time>
      </trkpt>
      <trkpt lat="47.522065" lon="7.902526">
        <ele>388.253394</ele>
        <time>2021-11-07T09:57:35.848Z</time>
      </trkpt>
      <trkpt lat="47.522038" lon="7.902562">
        <ele>388.396864</ele>
        <time>2021-11-07T09:57:37.352Z</time>
      </trkpt>
      <trkpt lat="47.522013" lon="7.902637">
        <ele>388.618586</ele>
        <time>2021-11-07T09:57:39.485Z</time>
      </trkpt>
      <trkpt lat="47.521792" lon="7.903347">
        <ele>390.382460</ele>
        <time>2021-11-07T09:57:55.554Z</time>
      </trkpt>
      <trkpt lat="47.521297" lon="7.904312">
        <ele>393.116578</ele>
        <time>2021-11-07T09:58:19.556Z</time>
      </trkpt>
      <trkpt lat="47.520989" lon="7.905130">
        <ele>394.789704</ele>
        <time>2021-11-07T09:58:34.971Z</time>
      </trkpt>
      <trkpt lat="47.520678" lon="7.906050">
        <ele>395.434231</ele>
        <time>2021-11-07T09:58:48.441Z</time>
      </trkpt>
      <trkpt lat="47.520566" lon="7.906668">
        <ele>395.835090</ele>
        <time>2021-11-07T09:58:55.460Z</time>
      </trkpt>
      <trkpt lat="47.520528" lon="7.906930">
        <ele>396.002968</ele>
        <time>2021-11-07T09:58:58.721Z</time>
      </trkpt>
      <trkpt lat="47.520515" lon="7.907103">
        <ele>396.112017</ele>
        <time>2021-11-07T09:59:00.518Z</time>
      </trkpt>
      <trkpt lat="47.520506" lon="7.907236">
        <ele>396.195755</ele>
        <time>2021-11-07T09:59:01.595Z</time>
      </trkpt>
      <trkpt lat="47.520551" lon="7.907422">
        <ele>396.291485</ele>
        <time>2021-11-07T09:59:04.005Z</time>
      </trkpt>
      <trkpt lat="47.520733" lon="7.907655">
        <ele>396.308842</ele>
        <time>2021-11-07T09:59:07.191Z</time>
      </trkpt>
      <trkpt lat="47.520738" lon="7.907839">
        <ele>396.317813</ele>
        <time>2021-11-07T09:59:09.334Z</time>
      </trkpt>
      <trkpt lat="47.520493" lon="7.908683">
        <ele>396.362571</ele>
        <time>2021-11-07T09:59:17.513Z</time>
      </trkpt>
      <trkpt lat="47.519997" lon="7.910833">
        <ele>397.119288</ele>
        <time>2021-11-07T09:59:43.460Z</time>
      </trkpt>
      <trkpt lat="47.519891" lon="7.911129">
        <ele>397.329518</ele>
        <time>2021-11-07T09:59:48.050Z</time>
      </trkpt>
      <trkpt lat="47.519720" lon="7.911522">
        <ele>397.622868</ele>
        <time>2021-11-07T09:59:54.134Z</time>
      </trkpt>
      <trkpt lat="47.519421" lon="7.912098">
        <ele>398.078729</ele>
        <time>2021-11-07T10:00:03.701Z</time>
      </trkpt>
      <trkpt lat="47.517688" lon="7.914418">
        <ele>400.548609</ele>
        <time>2021-11-07T10:00:48.279Z</time>
      </trkpt>
      <trkpt lat="47.517281" lon="7.915238">
        <ele>401.219430</ele>
        <time>2021-11-07T10:01:01.294Z</time>
      </trkpt>
      <trkpt lat="47.517140" lon="7.915259">
        <ele>401.357749</ele>
        <time>2021-11-07T10:01:03.793Z</time>
      </trkpt>
      <trkpt lat="47.516806" lon="7.914896">
        <ele>401.762149</ele>
        <time>2021-11-07T10:01:11.369Z</time>
      </trkpt>
      <trkpt lat="47.516748" lon="7.914873">
        <ele>401.818438</ele>
        <time>2021-11-07T10:01:12.541Z</time>
      </trkpt>
      <trkpt lat="47.516662" lon="7.914835">
        <ele>401.899133</ele>
        <time>2021-11-07T10:01:14.332Z</time>
      </trkpt>
      <trkpt lat="47.516626" lon="7.914830">
        <ele>401.931645</ele>
        <time>2021-11-07T10:01:15.026Z</time>
      </trkpt>
      <trkpt lat="47.516590" lon="7.914840">
        <ele>401.964578</ele>
        <time>2021-11-07T10:01:15.622Z</time>
      </trkpt>
      <trkpt lat="47.516569" lon="7.914864">
        <ele>401.988431</ele>
        <time>2021-11-07T10:01:16.156Z</time>
      </trkpt>
      <trkpt lat="47.516544" lon="7.914936">
        <ele>402.037593</ele>
        <time>2021-11-07T10:01:17.003Z</time>
      </trkpt>
      <trkpt lat="47.516436" lon="7.915153">
        <ele>402.201283</ele>
        <time>2021-11-07T10:01:20.392Z</time>
      </trkpt>
      <trkpt lat="47.516391" lon="7.915243">
        <ele>402.269284</ele>
        <time>2021-11-07T10:01:21.796Z</time>
      </trkpt>
      <trkpt lat="47.515014" lon="7.917030">
        <ele>404.103798</ele>
        <time>2021-11-07T10:01:55.572Z</time>
      </trkpt>
      <trkpt lat="47.514635" lon="7.917349">
        <ele>404.641216</ele>
        <time>2021-11-07T10:02:03.691Z</time>
      </trkpt>
      <trkpt lat="47.514561" lon="7.917409">
        <ele>404.745220</ele>
        <time>2021-11-07T10:02:05.583Z</time>
      </trkpt>
      <trkpt lat="47.514255" lon="7.917714">
        <ele>405.199946</ele>
        <time>2021-11-07T10:02:13.051Z</time>
      </trkpt>
      <trkpt lat="47.513378" lon="7.918393">
        <ele>406.835742</ele>
        <time>2021-11-07T10:02:34.778Z</time>
      </trkpt>
      <trkpt lat="47.513160" lon="7.918764">
        <ele>407.459552</ele>
        <time>2021-11-07T10:02:42.279Z</time>
      </trkpt>
      <trkpt lat="47.513058" lon="7.918896">
        <ele>407.713992</ele>
        <time>2021-11-07T10:02:45.435Z</time>
      </trkpt>
      <trkpt lat="47.512938" lon="7.919052">
        <ele>408.013924</ele>
        <time>2021-11-07T10:02:49.215Z</time>
      </trkpt>
      <trkpt lat="47.512664" lon="7.919306">
        <ele>408.621094</ele>
        <time>2021-11-07T10:02:56.540Z</time>
      </trkpt>
      <trkpt lat="47.512255" lon="7.919538">
        <ele>409.310493</ele>
        <time>2021-11-07T10:03:06.225Z</time>
      </trkpt>
      <trkpt lat="47.512085" lon="7.919732">
        <ele>409.591496</ele>
        <time>2021-11-07T10:03:10.850Z</time>
      </trkpt>
      <trkpt lat="47.511964" lon="7.919989">
        <ele>409.868516</ele>
        <time>2021-11-07T10:03:15.380Z</time>
      </trkpt>
      <trkpt lat="47.511883" lon="7.920133">
        <ele>410.034225</ele>
        <time>2021-11-07T10:03:18.027Z</time>
      </trkpt>
      <trkpt lat="47.511632" lon="7.920105">
        <ele>410.363763</ele>
        <time>2021-11-07T10:03:24.683Z</time>
      </trkpt>
      <trkpt lat="47.511613" lon="7.920183">
        <ele>410.437085</ele>
        <time>2021-11-07T10:03:25.595Z</time>
      </trkpt>
      <trkpt lat="47.511186" lon="7.920984">
        <ele>411.339420</ele>
        <time>2021-11-07T10:03:38.274Z</time>
      </trkpt>
      <trkpt lat="47.511067" lon="7.921207">
        <ele>411.527666</ele>
        <time>2021-11-07T10:03:41.598Z</time>
      </trkpt>
      <trkpt lat="47.511052" lon="7.921232">
        <ele>411.549198</ele>
        <time>2021-11-07T10:03:42.043Z</time>
      </trkpt>
      <trkpt lat="47.510872" lon="7.921477">
        <ele>411.782294</ele>
        <time>2021-11-07T10:03:46.345Z</time>
      </trkpt>
      <trkpt lat="47.510872" lon="7.921477">
        <ele>411.782294</ele>
        <time>2021-11-07T10:03:46.365Z</time>
      </trkpt>
      <trkpt lat="47.510639" lon="7.921796">
        <ele>412.084837</ele>
        <time>2021-11-07T10:03:51.867Z</time>
      </trkpt>
      <trkpt lat="47.509688" lon="7.922616">
        <ele>413.200110</ele>
        <time>2021-11-07T10:04:12.353Z</time>
      </trkpt>
      <trkpt lat="47.509615" lon="7.922742">
        <ele>413.423616</ele>
        <time>2021-11-07T10:04:15.385Z</time>
      </trkpt>
      <trkpt lat="47.509583" lon="7.922962">
        <ele>413.726619</ele>
        <time>2021-11-07T10:04:18.169Z</time>
      </trkpt>
      <trkpt lat="47.509550" lon="7.923245">
        <ele>414.113294</ele>
        <time>2021-11-07T10:04:22.936Z</time>
      </trkpt>
      <trkpt lat="47.509595" lon="7.923295">
        <ele>414.225446</ele>
        <time>2021-11-07T10:04:24.039Z</time>
      </trkpt>
      <trkpt lat="47.509668" lon="7.923400">
        <ele>414.428327</ele>
        <time>2021-11-07T10:04:25.947Z</time>
      </trkpt>
      <trkpt lat="47.509817" lon="7.923703">
        <ele>414.932954</ele>
        <time>2021-11-07T10:04:32.137Z</time>
      </trkpt>
      <trkpt lat="47.509869" lon="7.923971">
        <ele>415.308386</ele>
        <time>2021-11-07T10:04:36.014Z</time>
      </trkpt>
      <trkpt lat="47.509886" lon="7.924134">
        <ele>415.530453</ele>
        <time>2021-11-07T10:04:39.366Z</time>
      </trkpt>
      <trkpt lat="47.509806" lon="7.924174">
        <ele>415.698768</ele>
        <time>2021-11-07T10:04:41.122Z</time>
      </trkpt>
      <trkpt lat="47.509676" lon="7.924247">
        <ele>415.975915</ele>
        <time>2021-11-07T10:04:44.003Z</time>
      </trkpt>
      <trkpt lat="47.509605" lon="7.924290">
        <ele>416.128825</ele>
        <time>2021-11-07T10:04:46.000Z</time>
      </trkpt>
      <trkpt lat="47.509572" lon="7.924311">
        <ele>416.200424</ele>
        <time>2021-11-07T10:04:47.257Z</time>
      </trkpt>
      <trkpt lat="47.509223" lon="7.924628">
        <ele>417.069997</ele>
        <time>2021-11-07T10:04:57.336Z</time>
      </trkpt>
      <trkpt lat="47.509032" lon="7.924863">
        <ele>417.638908</ele>
        <time>2021-11-07T10:05:03.231Z</time>
      </trkpt>
      <trkpt lat="47.509016" lon="7.924882">
        <ele>417.685894</ele>
        <time>2021-11-07T10:05:03.829Z</time>
      </trkpt>
      <trkpt lat="47.508667" lon="7.925295">
        <ele>418.709392</ele>
        <time>2021-11-07T10:05:15.074Z</time>
      </trkpt>
      <trkpt lat="47.508355" lon="7.925609">
        <ele>419.573619</ele>
        <time>2021-11-07T10:05:23.446Z</time>
      </trkpt>
      <trkpt lat="47.508106" lon="7.925799">
        <ele>420.215326</ele>
        <time>2021-11-07T10:05:29.761Z</time>
      </trkpt>
      <trkpt lat="47.508002" lon="7.925879">
        <ele>420.483806</ele>
        <time>2021-11-07T10:05:32.148Z</time>
      </trkpt>
      <trkpt lat="47.507856" lon="7.925990">
        <ele>420.882168</ele>
        <time>2021-11-07T10:05:36.005Z</time>
      </trkpt>
      <trkpt lat="47.506112" lon="7.927414">
        <ele>426.845253</ele>
        <time>2021-11-07T10:06:29.000Z</time>
      </trkpt>
      <trkpt lat="47.505881" lon="7.927601">
        <ele>427.773804</ele>
        <time>2021-11-07T10:06:37.696Z</time>
      </trkpt>
      <trkpt lat="47.505868" lon="7.927611">
        <ele>427.825473</ele>
        <time>2021-11-07T10:06:38.159Z</time>
      </trkpt>
      <trkpt lat="47.505814" lon="7.927657">
        <ele>428.045201</ele>
        <time>2021-11-07T10:06:40.716Z</time>
      </trkpt>
      <trkpt lat="47.505253" lon="7.928170">
        <ele>430.370792</ele>
        <time>2021-11-07T10:07:01.385Z</time>
      </trkpt>
      <trkpt lat="47.504799" lon="7.928777">
        <ele>432.444674</ele>
        <time>2021-11-07T10:07:16.785Z</time>
      </trkpt>
      <trkpt lat="47.504724" lon="7.928871">
        <ele>432.591135</ele>
        <time>2021-11-07T10:07:20.750Z</time>
      </trkpt>
      <trkpt lat="47.504650" lon="7.928941">
        <ele>432.722018</ele>
        <time>2021-11-07T10:07:23.283Z</time>
      </trkpt>
      <trkpt lat="47.504005" lon="7.929312">
        <ele>433.753332</ele>
        <time>2021-11-07T10:07:37.724Z</time>
      </trkpt>
      <trkpt lat="47.503815" lon="7.929426">
        <ele>434.058881</ele>
        <time>2021-11-07T10:07:40.684Z</time>
      </trkpt>
      <trkpt lat="47.503598" lon="7.929585">
        <ele>434.419744</ele>
        <time>2021-11-07T10:07:45.960Z</time>
      </trkpt>
      <trkpt lat="47.503528" lon="7.929650">
        <ele>434.542898</ele>
        <time>2021-11-07T10:07:47.031Z</time>
      </trkpt>
      <trkpt lat="47.503485" lon="7.929688">
        <ele>434.617536</ele>
        <time>2021-11-07T10:07:48.543Z</time>
      </trkpt>
      <trkpt lat="47.503014" lon="7.930220">
        <ele>435.299535</ele>
        <time>2021-11-07T10:07:58.455Z</time>
      </trkpt>
      <trkpt lat="47.502761" lon="7.930610">
        <ele>435.593225</ele>
        <time>2021-11-07T10:08:04.809Z</time>
      </trkpt>
      <trkpt lat="47.502613" lon="7.930856">
        <ele>435.772151</ele>
        <time>2021-11-07T10:08:08.606Z</time>
      </trkpt>
      <trkpt lat="47.502400" lon="7.931256">
        <ele>436.048800</ele>
        <time>2021-11-07T10:08:15.410Z</time>
      </trkpt>
      <trkpt lat="47.502023" lon="7.932158">
        <ele>436.649436</ele>
        <time>2021-11-07T10:08:28.397Z</time>
      </trkpt>
      <trkpt lat="47.501901" lon="7.932351">
        <ele>436.823686</ele>
        <time>2021-11-07T10:08:32.155Z</time>
      </trkpt>
      <trkpt lat="47.501794" lon="7.932466">
        <ele>436.952723</ele>
        <time>2021-11-07T10:08:34.035Z</time>
      </trkpt>
      <trkpt lat="47.501463" lon="7.932668">
        <ele>437.302106</ele>
        <time>2021-11-07T10:08:40.174Z</time>
      </trkpt>
      <trkpt lat="47.501075" lon="7.932885">
        <ele>437.706863</ele>
        <time>2021-11-07T10:08:47.999Z</time>
      </trkpt>
      <trkpt lat="47.500990" lon="7.932950">
        <ele>437.800226</ele>
        <time>2021-11-07T10:08:50.317Z</time>
      </trkpt>
      <trkpt lat="47.500843" lon="7.933102">
        <ele>437.975211</ele>
        <time>2021-11-07T10:08:53.324Z</time>
      </trkpt>
      <trkpt lat="47.500435" lon="7.933872">
        <ele>439.088769</ele>
        <time>2021-11-07T10:09:06.563Z</time>
      </trkpt>
      <trkpt lat="47.500386" lon="7.933937">
        <ele>439.237726</ele>
        <time>2021-11-07T10:09:07.780Z</time>
      </trkpt>
      <trkpt lat="47.500352" lon="7.933976">
        <ele>439.335103</ele>
        <time>2021-11-07T10:09:08.587Z</time>
      </trkpt>
      <trkpt lat="47.500275" lon="7.934029">
        <ele>439.527345</ele>
        <time>2021-11-07T10:09:10.835Z</time>
      </trkpt>
      <trkpt lat="47.500208" lon="7.934071">
        <ele>439.692065</ele>
        <time>2021-11-07T10:09:12.502Z</time>
      </trkpt>
      <trkpt lat="47.500193" lon="7.934023">
        <ele>439.772951</ele>
        <time>2021-11-07T10:09:13.146Z</time>
      </trkpt>
      <trkpt lat="47.500169" lon="7.933984">
        <ele>439.853635</ele>
        <time>2021-11-07T10:09:13.676Z</time>
      </trkpt>
      <trkpt lat="47.500138" lon="7.933956">
        <ele>439.935849</ele>
        <time>2021-11-07T10:09:14.477Z</time>
      </trkpt>
      <trkpt lat="47.500067" lon="7.933946">
        <ele>440.097308</ele>
        <time>2021-11-07T10:09:15.713Z</time>
      </trkpt>
      <trkpt lat="47.500034" lon="7.933965">
        <ele>440.177468</ele>
        <time>2021-11-07T10:09:16.678Z</time>
      </trkpt>
      <trkpt lat="47.500007" lon="7.933994">
        <ele>440.252989</ele>
        <time>2021-11-07T10:09:17.752Z</time>
      </trkpt>
      <trkpt lat="47.499971" lon="7.934127">
        <ele>440.472123</ele>
        <time>2021-11-07T10:09:20.160Z</time>
      </trkpt>
      <trkpt lat="47.499976" lon="7.934175">
        <ele>440.546404</ele>
        <time>2021-11-07T10:09:21.051Z</time>
      </trkpt>
      <trkpt lat="47.499991" lon="7.934221">
        <ele>440.624524</ele>
        <time>2021-11-07T10:09:21.565Z</time>
      </trkpt>
      <trkpt lat="47.500077" lon="7.934300">
        <ele>440.853661</ele>
        <time>2021-11-07T10:09:23.785Z</time>
      </trkpt>
      <trkpt lat="47.500111" lon="7.934299">
        <ele>440.930647</ele>
        <time>2021-11-07T10:09:24.423Z</time>
      </trkpt>
      <trkpt lat="47.500121" lon="7.934400">
        <ele>441.086770</ele>
        <time>2021-11-07T10:09:26.624Z</time>
      </trkpt>
      <trkpt lat="47.500647" lon="7.936766">
        <ele>446.668069</ele>
        <time>2021-11-07T10:10:14.706Z</time>
      </trkpt>
      <trkpt lat="47.500700" lon="7.936982">
        <ele>447.262890</ele>
        <time>2021-11-07T10:10:19.669Z</time>
      </trkpt>
      <trkpt lat="47.500786" lon="7.937295">
        <ele>448.137488</ele>
        <time>2021-11-07T10:10:26.738Z</time>
      </trkpt>
      <trkpt lat="47.500922" lon="7.937675">
        <ele>449.258056</ele>
        <time>2021-11-07T10:10:36.152Z</time>
      </trkpt>
      <trkpt lat="47.501302" lon="7.938421">
        <ele>452.498743</ele>
        <time>2021-11-07T10:10:58.026Z</time>
      </trkpt>
      <trkpt lat="47.503196" lon="7.941586">
        <ele>467.900039</ele>
        <time>2021-11-07T10:12:41.834Z</time>
      </trkpt>
      <trkpt lat="47.503525" lon="7.942511">
        <ele>472.390146</ele>
        <time>2021-11-07T10:13:10.718Z</time>
      </trkpt>
      <trkpt lat="47.503757" lon="7.943678">
        <ele>477.727199</ele>
        <time>2021-11-07T10:13:44.974Z</time>
      </trkpt>
      <trkpt lat="47.503877" lon="7.944221">
        <ele>480.233459</ele>
        <time>2021-11-07T10:14:01.039Z</time>
      </trkpt>
      <trkpt lat="47.504206" lon="7.945339">
        <ele>485.564585</ele>
        <time>2021-11-07T10:14:34.466Z</time>
      </trkpt>
      <trkpt lat="47.504339" lon="7.946127">
        <ele>489.115339</ele>
        <time>2021-11-07T10:14:56.068Z</time>
      </trkpt>
      <trkpt lat="47.504360" lon="7.947339">
        <ele>494.387863</ele>
        <time>2021-11-07T10:15:30.835Z</time>
      </trkpt>
      <trkpt lat="47.504516" lon="7.948210">
        <ele>498.285474</ele>
        <time>2021-11-07T10:15:55.216Z</time>
      </trkpt>
      <trkpt lat="47.504564" lon="7.948438">
        <ele>499.318450</ele>
        <time>2021-11-07T10:16:02.342Z</time>
      </trkpt>
      <trkpt lat="47.504637" lon="7.948756">
        <ele>500.771181</ele>
        <time>2021-11-07T10:16:10.973Z</time>
      </trkpt>
      <trkpt lat="47.504833" lon="7.949650">
        <ele>504.671934</ele>
        <time>2021-11-07T10:16:35.744Z</time>
      </trkpt>
      <trkpt lat="47.505078" lon="7.950674">
        <ele>508.861604</ele>
        <time>2021-11-07T10:17:05.220Z</time>
      </trkpt>
      <trkpt lat="47.505298" lon="7.951312">
        <ele>511.624217</ele>
        <time>2021-11-07T10:17:22.490Z</time>
      </trkpt>
      <trkpt lat="47.505561" lon="7.951903">
        <ele>514.293915</ele>
        <time>2021-11-07T10:17:38.869Z</time>
      </trkpt>
      <trkpt lat="47.505724" lon="7.952248">
        <ele>515.791374</ele>
        <time>2021-11-07T10:17:48.766Z</time>
      </trkpt>
      <trkpt lat="47.506242" lon="7.953373">
        <ele>520.633918</ele>
        <time>2021-11-07T10:18:23.229Z</time>
      </trkpt>
      <trkpt lat="47.506403" lon="7.953752">
        <ele>522.226335</ele>
        <time>2021-11-07T10:18:34.658Z</time>
      </trkpt>
      <trkpt lat="47.506539" lon="7.954325">
        <ele>523.216313</ele>
        <time>2021-11-07T10:18:48.529Z</time>
      </trkpt>
      <trkpt lat="47.506555" lon="7.954505">
        <ele>523.294192</ele>
        <time>2021-11-07T10:18:52.896Z</time>
      </trkpt>
      <trkpt lat="47.506559" lon="7.954699">
        <ele>523.377449</ele>
        <time>2021-11-07T10:18:56.779Z</time>
      </trkpt>
      <trkpt lat="47.506560" lon="7.954845">
        <ele>523.440080</ele>
        <time>2021-11-07T10:18:59.042Z</time>
      </trkpt>
      <trkpt lat="47.506539" lon="7.955130">
        <ele>523.563059</ele>
        <time>2021-11-07T10:19:04.781Z</time>
      </trkpt>
      <trkpt lat="47.506484" lon="7.955438">
        <ele>523.699718</ele>
        <time>2021-11-07T10:19:07.180Z</time>
      </trkpt>
      <trkpt lat="47.506190" lon="7.956344">
        <ele>524.130874</ele>
        <time>2021-11-07T10:19:14.885Z</time>
      </trkpt>
      <trkpt lat="47.506053" lon="7.957072">
        <ele>521.632192</ele>
        <time>2021-11-07T10:19:20.049Z</time>
      </trkpt>
      <trkpt lat="47.506050" lon="7.957299">
        <ele>520.660024</ele>
        <time>2021-11-07T10:19:21.493Z</time>
      </trkpt>
      <trkpt lat="47.506050" lon="7.957397">
        <ele>520.240402</ele>
        <time>2021-11-07T10:19:22.043Z</time>
      </trkpt>
      <trkpt lat="47.506128" lon="7.958087">
        <ele>517.244839</ele>
        <time>2021-11-07T10:19:26.318Z</time>
      </trkpt>
      <trkpt lat="47.506363" lon="7.959196">
        <ele>512.193160</ele>
        <time>2021-11-07T10:19:33.226Z</time>
      </trkpt>
      <trkpt lat="47.506641" lon="7.959810">
        <ele>508.579589</ele>
        <time>2021-11-07T10:19:37.612Z</time>
      </trkpt>
      <trkpt lat="47.506874" lon="7.960127">
        <ele>506.289378</ele>
        <time>2021-11-07T10:19:40.473Z</time>
      </trkpt>
      <trkpt lat="47.507319" lon="7.960495">
        <ele>502.600439</ele>
        <time>2021-11-07T10:19:45.101Z</time>
      </trkpt>
      <trkpt lat="47.509248" lon="7.961556">
        <ele>487.807795</ele>
        <time>2021-11-07T10:20:03.618Z</time>
      </trkpt>
      <trkpt lat="47.509385" lon="7.961632">
        <ele>486.737377</ele>
        <time>2021-11-07T10:20:04.899Z</time>
      </trkpt>
      <trkpt lat="47.509788" lon="7.961854">
        <ele>483.095224</ele>
        <time>2021-11-07T10:20:08.660Z</time>
      </trkpt>
      <trkpt lat="47.510127" lon="7.962072">
        <ele>479.964628</ele>
        <time>2021-11-07T10:20:11.906Z</time>
      </trkpt>
      <trkpt lat="47.510301" lon="7.962209">
        <ele>478.295341</ele>
        <time>2021-11-07T10:20:13.617Z</time>
      </trkpt>
      <trkpt lat="47.510406" lon="7.962296">
        <ele>477.276153</ele>
        <time>2021-11-07T10:20:14.688Z</time>
      </trkpt>
      <trkpt lat="47.510552" lon="7.962453">
        <ele>475.747707</ele>
        <time>2021-11-07T10:20:16.277Z</time>
      </trkpt>
      <trkpt lat="47.510679" lon="7.962576">
        <ele>474.462255</ele>
        <time>2021-11-07T10:20:17.579Z</time>
      </trkpt>
      <trkpt lat="47.510706" lon="7.962606">
        <ele>474.176316</ele>
        <time>2021-11-07T10:20:17.878Z</time>
      </trkpt>
      <trkpt lat="47.510909" lon="7.962826">
        <ele>472.045403</ele>
        <time>2021-11-07T10:20:20.054Z</time>
      </trkpt>
      <trkpt lat="47.511697" lon="7.963783">
        <ele>465.077740</ele>
        <time>2021-11-07T10:20:29.126Z</time>
      </trkpt>
      <trkpt lat="47.511807" lon="7.963896">
        <ele>464.173336</ele>
        <time>2021-11-07T10:20:30.320Z</time>
      </trkpt>
      <trkpt lat="47.511885" lon="7.963977">
        <ele>463.529753</ele>
        <time>2021-11-07T10:20:31.218Z</time>
      </trkpt>
      <trkpt lat="47.512076" lon="7.964120">
        <ele>462.083952</ele>
        <time>2021-11-07T10:20:33.151Z</time>
      </trkpt>
      <trkpt lat="47.512806" lon="7.964495">
        <ele>458.806475</ele>
        <time>2021-11-07T10:20:40.493Z</time>
      </trkpt>
      <trkpt lat="47.513069" lon="7.964710">
        <ele>458.280382</ele>
        <time>2021-11-07T10:20:43.477Z</time>
      </trkpt>
      <trkpt lat="47.513387" lon="7.965176">
        <ele>457.496874</ele>
        <time>2021-11-07T10:20:48.457Z</time>
      </trkpt>
      <trkpt lat="47.513439" lon="7.965284">
        <ele>457.340002</ele>
        <time>2021-11-07T10:20:49.423Z</time>
      </trkpt>
      <trkpt lat="47.513496" lon="7.965435">
        <ele>457.135406</ele>
        <time>2021-11-07T10:20:51.186Z</time>
      </trkpt>
      <trkpt lat="47.513552" lon="7.965694">
        <ele>456.813759</ele>
        <time>2021-11-07T10:20:54.548Z</time>
      </trkpt>
      <trkpt lat="47.513574" lon="7.965795">
        <ele>456.688243</ele>
        <time>2021-11-07T10:20:55.575Z</time>
      </trkpt>
      <trkpt lat="47.513607" lon="7.966067">
        <ele>456.361385</ele>
        <time>2021-11-07T10:20:59.662Z</time>
      </trkpt>
      <trkpt lat="47.513677" lon="7.966493">
        <ele>457.621592</ele>
        <time>2021-11-07T10:21:06.151Z</time>
      </trkpt>
      <trkpt lat="47.513719" lon="7.966609">
        <ele>458.026903</ele>
        <time>2021-11-07T10:21:09.403Z</time>
      </trkpt>
      <trkpt lat="47.513963" lon="7.966968">
        <ele>459.595291</ele>
        <time>2021-11-07T10:21:19.735Z</time>
      </trkpt>
      <trkpt lat="47.514175" lon="7.967361">
        <ele>461.144148</ele>
        <time>2021-11-07T10:21:30.579Z</time>
      </trkpt>
      <trkpt lat="47.514265" lon="7.967596">
        <ele>461.976064</ele>
        <time>2021-11-07T10:21:37.202Z</time>
      </trkpt>
      <trkpt lat="47.514516" lon="7.968208">
        <ele>464.180936</ele>
        <time>2021-11-07T10:21:55.548Z</time>
      </trkpt>
      <trkpt lat="47.514581" lon="7.968390">
        <ele>465.075945</ele>
        <time>2021-11-07T10:22:02.876Z</time>
      </trkpt>
      <trkpt lat="47.514762" lon="7.968835">
        <ele>468.178864</ele>
        <time>2021-11-07T10:22:19.555Z</time>
      </trkpt>
      <trkpt lat="47.515012" lon="7.969232">
        <ele>471.421104</ele>
        <time>2021-11-07T10:22:38.004Z</time>
      </trkpt>
      <trkpt lat="47.515227" lon="7.969425">
        <ele>473.644762</ele>
        <time>2021-11-07T10:22:50.765Z</time>
      </trkpt>
      <trkpt lat="47.515307" lon="7.969493">
        <ele>474.460591</ele>
        <time>2021-11-07T10:22:56.133Z</time>
      </trkpt>
      <trkpt lat="47.515780" lon="7.969896">
        <ele>479.287000</ele>
        <time>2021-11-07T10:23:25.377Z</time>
      </trkpt>
      <trkpt lat="47.516258" lon="7.970425">
        <ele>483.519701</ele>
        <time>2021-11-07T10:23:56.438Z</time>
      </trkpt>
      <trkpt lat="47.516475" lon="7.970786">
        <ele>485.674132</ele>
        <time>2021-11-07T10:24:14.130Z</time>
      </trkpt>
      <trkpt lat="47.516639" lon="7.971156">
        <ele>487.647076</ele>
        <time>2021-11-07T10:24:28.962Z</time>
      </trkpt>
      <trkpt lat="47.516849" lon="7.971986">
        <ele>491.598292</ele>
        <time>2021-11-07T10:24:50.320Z</time>
      </trkpt>
      <trkpt lat="47.517017" lon="7.972944">
        <ele>489.788306</ele>
        <time>2021-11-07T10:24:58.069Z</time>
      </trkpt>
      <trkpt lat="47.517070" lon="7.973149">
        <ele>489.118458</ele>
        <time>2021-11-07T10:24:59.492Z</time>
      </trkpt>
      <trkpt lat="47.517191" lon="7.973538">
        <ele>487.811536</ele>
        <time>2021-11-07T10:25:02.284Z</time>
      </trkpt>
      <trkpt lat="47.517208" lon="7.973572">
        <ele>487.682443</ele>
        <time>2021-11-07T10:25:02.527Z</time>
      </trkpt>
      <trkpt lat="47.517263" lon="7.973683">
        <ele>487.262331</ele>
        <time>2021-11-07T10:25:03.360Z</time>
      </trkpt>
      <trkpt lat="47.517422" lon="7.973976">
        <ele>486.115346</ele>
        <time>2021-11-07T10:25:05.689Z</time>
      </trkpt>
      <trkpt lat="47.517539" lon="7.974133">
        <ele>485.401898</ele>
        <time>2021-11-07T10:25:07.082Z</time>
      </trkpt>
      <trkpt lat="47.517601" lon="7.974216">
        <ele>485.024235</ele>
        <time>2021-11-07T10:25:07.810Z</time>
      </trkpt>
      <trkpt lat="47.517803" lon="7.974479">
        <ele>483.434375</ele>
        <time>2021-11-07T10:25:10.158Z</time>
      </trkpt>
      <trkpt lat="47.517897" lon="7.974601">
        <ele>482.314421</ele>
        <time>2021-11-07T10:25:11.222Z</time>
      </trkpt>
      <trkpt lat="47.518511" lon="7.975376">
        <ele>475.085635</ele>
        <time>2021-11-07T10:25:18.133Z</time>
      </trkpt>
      <trkpt lat="47.518771" lon="7.975833">
        <ele>471.469915</ele>
        <time>2021-11-07T10:25:21.646Z</time>
      </trkpt>
      <trkpt lat="47.518954" lon="7.976318">
        <ele>468.108251</ele>
        <time>2021-11-07T10:25:24.987Z</time>
      </trkpt>
      <trkpt lat="47.519021" lon="7.976610">
        <ele>466.914186</ele>
        <time>2021-11-07T10:25:26.905Z</time>
      </trkpt>
      <trkpt lat="47.519068" lon="7.976937">
        <ele>465.633129</ele>
        <time>2021-11-07T10:25:28.993Z</time>
      </trkpt>
      <trkpt lat="47.519130" lon="7.977741">
        <ele>462.532357</ele>
        <time>2021-11-07T10:25:34.004Z</time>
      </trkpt>
      <trkpt lat="47.519217" lon="7.979377">
        <ele>456.839329</ele>
        <time>2021-11-07T10:25:44.493Z</time>
      </trkpt>
      <trkpt lat="47.519262" lon="7.980038">
        <ele>455.225936</ele>
        <time>2021-11-07T10:25:48.925Z</time>
      </trkpt>
      <trkpt lat="47.519321" lon="7.980745">
        <ele>453.495910</ele>
        <time>2021-11-07T10:25:53.712Z</time>
      </trkpt>
      <trkpt lat="47.519464" lon="7.981401">
        <ele>451.821864</ele>
        <time>2021-11-07T10:25:58.421Z</time>
      </trkpt>
      <trkpt lat="47.519731" lon="7.981940">
        <ele>450.735256</ele>
        <time>2021-11-07T10:26:03.200Z</time>
      </trkpt>
      <trkpt lat="47.519803" lon="7.982060">
        <ele>450.519370</ele>
        <time>2021-11-07T10:26:04.492Z</time>
      </trkpt>
      <trkpt lat="47.519918" lon="7.982214">
        <ele>450.210585</ele>
        <time>2021-11-07T10:26:06.171Z</time>
      </trkpt>
      <trkpt lat="47.520345" lon="7.982548">
        <ele>449.248869</ele>
        <time>2021-11-07T10:26:11.832Z</time>
      </trkpt>
      <trkpt lat="47.520871" lon="7.982711">
        <ele>448.178656</ele>
        <time>2021-11-07T10:26:17.948Z</time>
      </trkpt>
      <trkpt lat="47.522127" lon="7.982533">
        <ele>444.264229</ele>
        <time>2021-11-07T10:26:31.520Z</time>
      </trkpt>
      <trkpt lat="47.522790" lon="7.982608">
        <ele>442.078137</ele>
        <time>2021-11-07T10:26:37.904Z</time>
      </trkpt>
      <trkpt lat="47.523017" lon="7.982688">
        <ele>440.643495</ele>
        <time>2021-11-07T10:26:40.066Z</time>
      </trkpt>
      <trkpt lat="47.523263" lon="7.982795">
        <ele>438.855073</ele>
        <time>2021-11-07T10:26:42.487Z</time>
      </trkpt>
      <trkpt lat="47.523294" lon="7.982808">
        <ele>438.630334</ele>
        <time>2021-11-07T10:26:42.753Z</time>
      </trkpt>
      <trkpt lat="47.524375" lon="7.983532">
        <ele>430.354663</ele>
        <time>2021-11-07T10:26:53.341Z</time>
      </trkpt>
      <trkpt lat="47.524635" lon="7.983601">
        <ele>428.343321</ele>
        <time>2021-11-07T10:26:55.636Z</time>
      </trkpt>
      <trkpt lat="47.525374" lon="7.983611">
        <ele>422.161522</ele>
        <time>2021-11-07T10:27:02.162Z</time>
      </trkpt>
      <trkpt lat="47.525678" lon="7.983718">
        <ele>419.547806</ele>
        <time>2021-11-07T10:27:04.912Z</time>
      </trkpt>
      <trkpt lat="47.526507" lon="7.984423">
        <ele>411.042422</ele>
        <time>2021-11-07T10:27:13.270Z</time>
      </trkpt>
      <trkpt lat="47.527147" lon="7.984868">
        <ele>404.038970</ele>
        <time>2021-11-07T10:27:19.419Z</time>
      </trkpt>
      <trkpt lat="47.528802" lon="7.985465">
        <ele>384.660587</ele>
        <time>2021-11-07T10:27:33.929Z</time>
      </trkpt>
      <trkpt lat="47.529179" lon="7.985784">
        <ele>379.204983</ele>
        <time>2021-11-07T10:27:37.573Z</time>
      </trkpt>
      <trkpt lat="47.529869" lon="7.987016">
        <ele>364.598469</ele>
        <time>2021-11-07T10:27:46.554Z</time>
      </trkpt>
      <trkpt lat="47.530434" lon="7.987618">
        <ele>354.767899</ele>
        <time>2021-11-07T10:27:52.347Z</time>
      </trkpt>
      <trkpt lat="47.530575" lon="7.987827">
        <ele>351.950359</ele>
        <time>2021-11-07T10:27:54.003Z</time>
      </trkpt>
      <trkpt lat="47.530638" lon="7.987902">
        <ele>350.808728</ele>
        <time>2021-11-07T10:27:54.681Z</time>
      </trkpt>
      <trkpt lat="47.530767" lon="7.988021">
        <ele>348.662218</ele>
        <time>2021-11-07T10:27:55.974Z</time>
      </trkpt>
      <trkpt lat="47.531141" lon="7.988178">
        <ele>345.550252</ele>
        <time>2021-11-07T10:27:59.271Z</time>
      </trkpt>
      <trkpt lat="47.531266" lon="7.988266">
        <ele>344.468951</ele>
        <time>2021-11-07T10:28:00.437Z</time>
      </trkpt>
      <trkpt lat="47.531266" lon="7.988266">
        <ele>344.468951</ele>
        <time>2021-11-07T10:28:00.440Z</time>
      </trkpt>
      <trkpt lat="47.531375" lon="7.988390">
        <ele>343.395149</ele>
        <time>2021-11-07T10:28:01.709Z</time>
      </trkpt>
      <trkpt lat="47.531451" lon="7.988494">
        <ele>342.586741</ele>
        <time>2021-11-07T10:28:02.593Z</time>
      </trkpt>
      <trkpt lat="47.531554" lon="7.988719">
        <ele>341.152781</ele>
        <time>2021-11-07T10:28:04.195Z</time>
      </trkpt>
      <trkpt lat="47.531585" lon="7.988785">
        <ele>340.728674</ele>
        <time>2021-11-07T10:28:04.770Z</time>
      </trkpt>
      <trkpt lat="47.531632" lon="7.988909">
        <ele>339.978552</ele>
        <time>2021-11-07T10:28:05.594Z</time>
      </trkpt>
      <trkpt lat="47.531849" lon="7.989381">
        <ele>336.966354</ele>
        <time>2021-11-07T10:28:09.200Z</time>
      </trkpt>
      <trkpt lat="47.531897" lon="7.989450">
        <ele>336.443755</ele>
        <time>2021-11-07T10:28:09.804Z</time>
      </trkpt>
      <trkpt lat="47.531897" lon="7.989450">
        <ele>336.443755</ele>
        <time>2021-11-07T10:28:09.812Z</time>
      </trkpt>
      <trkpt lat="47.531897" lon="7.989450">
        <ele>336.443755</ele>
        <time>2021-11-07T10:28:09.882Z</time>
      </trkpt>
      <trkpt lat="47.532014" lon="7.989225">
        <ele>334.945685</ele>
        <time>2021-11-07T10:28:12.116Z</time>
      </trkpt>
      <trkpt lat="47.532299" lon="7.988577">
        <ele>333.173292</ele>
        <time>2021-11-07T10:28:17.432Z</time>
      </trkpt>
      <trkpt lat="47.532373" lon="7.988399">
        <ele>332.782000</ele>
        <time>2021-11-07T10:28:19.238Z</time>
      </trkpt>
      <trkpt lat="47.532401" lon="7.988331">
        <ele>332.632908</ele>
        <time>2021-11-07T10:28:19.863Z</time>
      </trkpt>
      <trkpt lat="47.532464" lon="7.988171">
        <ele>332.286198</ele>
        <time>2021-11-07T10:28:21.065Z</time>
      </trkpt>
      <trkpt lat="47.532544" lon="7.987973">
        <ele>331.854271</ele>
        <time>2021-11-07T10:28:22.788Z</time>
      </trkpt>
      <trkpt lat="47.532621" lon="7.987826">
        <ele>331.506005</ele>
        <time>2021-11-07T10:28:24.141Z</time>
      </trkpt>
      <trkpt lat="47.532716" lon="7.987667">
        <ele>331.108573</ele>
        <time>2021-11-07T10:28:25.604Z</time>
      </trkpt>
      <trkpt lat="47.532879" lon="7.987447">
        <ele>330.497174</ele>
        <time>2021-11-07T10:28:28.015Z</time>
      </trkpt>
      <trkpt lat="47.533114" lon="7.987128">
        <ele>329.613409</ele>
        <time>2021-11-07T10:28:31.516Z</time>
      </trkpt>
      <trkpt lat="47.533142" lon="7.987165">
        <ele>329.509376</ele>
        <time>2021-11-07T10:28:31.855Z</time>
      </trkpt>
      <trkpt lat="47.533195" lon="7.987215">
        <ele>329.293699</ele>
        <time>2021-11-07T10:28:32.544Z</time>
      </trkpt>
      <trkpt lat="47.533509" lon="7.987411">
        <ele>328.023946</ele>
        <time>2021-11-07T10:28:35.983Z</time>
      </trkpt>
      <trkpt lat="47.533728" lon="7.987557">
        <ele>327.129009</ele>
        <time>2021-11-07T10:28:38.389Z</time>
      </trkpt>
      <trkpt lat="47.534072" lon="7.987749">
        <ele>325.759135</ele>
        <time>2021-11-07T10:28:41.999Z</time>
      </trkpt>
      <trkpt lat="47.534280" lon="7.987862">
        <ele>324.933552</ele>
        <time>2021-11-07T10:28:44.124Z</time>
      </trkpt>
      <trkpt lat="47.534363" lon="7.987895">
        <ele>324.613312</ele>
        <time>2021-11-07T10:28:44.955Z</time>
      </trkpt>
      <trkpt lat="47.534795" lon="7.988078">
        <ele>322.938966</ele>
        <time>2021-11-07T10:28:49.261Z</time>
      </trkpt>
      <trkpt lat="47.534985" lon="7.988144">
        <ele>322.296082</ele>
        <time>2021-11-07T10:28:51.146Z</time>
      </trkpt>
      <trkpt lat="47.535196" lon="7.988134">
        <ele>321.631946</ele>
        <time>2021-11-07T10:28:53.264Z</time>
      </trkpt>
      <trkpt lat="47.535393" lon="7.988043">
        <ele>320.982753</ele>
        <time>2021-11-07T10:28:55.334Z</time>
      </trkpt>
      <trkpt lat="47.535735" lon="7.987639">
        <ele>319.606569</ele>
        <time>2021-11-07T10:28:59.789Z</time>
      </trkpt>
      <trkpt lat="47.535862" lon="7.987408">
        <ele>318.973841</ele>
        <time>2021-11-07T10:29:01.827Z</time>
      </trkpt>
      <trkpt lat="47.535935" lon="7.987272">
        <ele>318.604819</ele>
        <time>2021-11-07T10:29:03.058Z</time>
      </trkpt>
      <trkpt lat="47.536140" lon="7.986963">
        <ele>317.684688</ele>
        <time>2021-11-07T10:29:06.059Z</time>
      </trkpt>
      <trkpt lat="47.536465" lon="7.986660">
        <ele>316.840981</ele>
        <time>2021-11-07T10:29:10.234Z</time>
      </trkpt>
      <trkpt lat="47.536685" lon="7.986543">
        <ele>316.539095</ele>
        <time>2021-11-07T10:29:12.790Z</time>
      </trkpt>
      <trkpt lat="47.536796" lon="7.986519">
        <ele>316.394221</ele>
        <time>2021-11-07T10:29:14.031Z</time>
      </trkpt>
      <trkpt lat="47.537167" lon="7.986470">
        <ele>315.913179</ele>
        <time>2021-11-07T10:29:18.490Z</time>
      </trkpt>
      <trkpt lat="47.537256" lon="7.986463">
        <ele>315.798075</ele>
        <time>2021-11-07T10:29:19.567Z</time>
      </trkpt>
      <trkpt lat="47.537409" lon="7.986449">
        <ele>315.600101</ele>
        <time>2021-11-07T10:29:21.498Z</time>
      </trkpt>
      <trkpt lat="47.537821" lon="7.986433">
        <ele>315.067826</ele>
        <time>2021-11-07T10:29:26.603Z</time>
      </trkpt>
      <trkpt lat="47.537897" lon="7.986428">
        <ele>314.969576</ele>
        <time>2021-11-07T10:29:27.760Z</time>
      </trkpt>
      <trkpt lat="47.538277" lon="7.986431">
        <ele>314.779556</ele>
        <time>2021-11-07T10:29:32.500Z</time>
      </trkpt>
      <trkpt lat="47.538514" lon="7.986428">
        <ele>314.787623</ele>
        <time>2021-11-07T10:29:35.645Z</time>
      </trkpt>
      <trkpt lat="47.538630" lon="7.986438">
        <ele>314.791578</ele>
        <time>2021-11-07T10:29:37.803Z</time>
      </trkpt>
      <trkpt lat="47.539274" lon="7.986488">
        <ele>314.813528</ele>
        <time>2021-11-07T10:29:48.080Z</time>
      </trkpt>
      <trkpt lat="47.539415" lon="7.986507">
        <ele>314.818348</ele>
        <time>2021-11-07T10:29:50.800Z</time>
      </trkpt>
      <trkpt lat="47.539549" lon="7.986535">
        <ele>314.822954</ele>
        <time>2021-11-07T10:29:52.856Z</time>
      </trkpt>
      <trkpt lat="47.539952" lon="7.986630">
        <ele>314.801352</ele>
        <time>2021-11-07T10:29:59.508Z</time>
      </trkpt>
      <trkpt lat="47.540347" lon="7.986737">
        <ele>314.686996</ele>
        <time>2021-11-07T10:30:05.202Z</time>
      </trkpt>
      <trkpt lat="47.540335" lon="7.986933">
        <ele>314.649160</ele>
        <time>2021-11-07T10:30:07.040Z</time>
      </trkpt>
      <trkpt lat="47.540321" lon="7.987087">
        <ele>314.619286</ele>
        <time>2021-11-07T10:30:08.363Z</time>
      </trkpt>
      <trkpt lat="47.539978" lon="7.988189">
        <ele>314.385989</ele>
        <time>2021-11-07T10:30:19.549Z</time>
      </trkpt>
      <trkpt lat="47.539990" lon="7.989097">
        <ele>314.123109</ele>
        <time>2021-11-07T10:30:27.385Z</time>
      </trkpt>
      <trkpt lat="47.540011" lon="7.990131">
        <ele>313.763791</ele>
        <time>2021-11-07T10:30:36.482Z</time>
      </trkpt>
      <trkpt lat="47.540018" lon="7.990553">
        <ele>313.617166</ele>
        <time>2021-11-07T10:30:40.234Z</time>
      </trkpt>
      <trkpt lat="47.540056" lon="7.990982">
        <ele>313.466878</ele>
        <time>2021-11-07T10:30:44.150Z</time>
      </trkpt>
      <trkpt lat="47.540104" lon="7.991287">
        <ele>313.416208</ele>
        <time>2021-11-07T10:30:47.037Z</time>
      </trkpt>
      <trkpt lat="47.540140" lon="7.991504">
        <ele>313.459603</ele>
        <time>2021-11-07T10:31:03.653Z</time>
      </trkpt>
      <trkpt lat="47.540194" lon="7.991768">
        <ele>313.513174</ele>
        <time>2021-11-07T10:31:06.290Z</time>
      </trkpt>
      <trkpt lat="47.540262" lon="7.992244">
        <ele>313.607659</ele>
        <time>2021-11-07T10:31:11.086Z</time>
      </trkpt>
      <trkpt lat="47.540316" lon="7.993620">
        <ele>313.875328</ele>
        <time>2021-11-07T10:31:26.908Z</time>
      </trkpt>
      <trkpt lat="47.540089" lon="7.994896">
        <ele>315.290150</ele>
        <time>2021-11-07T10:31:43.633Z</time>
      </trkpt>
      <trkpt lat="47.540013" lon="7.995140">
        <ele>315.618662</ele>
        <time>2021-11-07T10:31:47.560Z</time>
      </trkpt>
      <trkpt lat="47.539876" lon="7.995796">
        <ele>316.458129</ele>
        <time>2021-11-07T10:31:57.187Z</time>
      </trkpt>
      <trkpt lat="47.539838" lon="7.996117">
        <ele>316.856544</ele>
        <time>2021-11-07T10:32:02.924Z</time>
      </trkpt>
      <trkpt lat="47.539726" lon="7.997265">
        <ele>320.386658</ele>
        <time>2021-11-07T10:32:27.073Z</time>
      </trkpt>
      <trkpt lat="47.539590" lon="7.998122">
        <ele>323.520849</ele>
        <time>2021-11-07T10:32:47.109Z</time>
      </trkpt>
      <trkpt lat="47.539569" lon="7.998315">
        <ele>324.216822</ele>
        <time>2021-11-07T10:32:52.800Z</time>
      </trkpt>
      <trkpt lat="47.539365" lon="8.001150">
        <ele>337.499180</ele>
        <time>2021-11-07T10:34:19.502Z</time>
      </trkpt>
      <trkpt lat="47.539400" lon="8.001871">
        <ele>340.739735</ele>
        <time>2021-11-07T10:34:41.478Z</time>
      </trkpt>
      <trkpt lat="47.539437" lon="8.002525">
        <ele>342.920249</ele>
        <time>2021-11-07T10:34:59.947Z</time>
      </trkpt>
      <trkpt lat="47.539437" lon="8.002963">
        <ele>344.375492</ele>
        <time>2021-11-07T10:35:10.944Z</time>
      </trkpt>
      <trkpt lat="47.539434" lon="8.003156">
        <ele>345.016899</ele>
        <time>2021-11-07T10:35:15.626Z</time>
      </trkpt>
      <trkpt lat="47.539492" lon="8.004516">
        <ele>348.887145</ele>
        <time>2021-11-07T10:35:42.500Z</time>
      </trkpt>
      <trkpt lat="47.539590" lon="8.005890">
        <ele>349.160179</ele>
        <time>2021-11-07T10:35:57.033Z</time>
      </trkpt>
      <trkpt lat="47.539569" lon="8.007914">
        <ele>349.304819</ele>
        <time>2021-11-07T10:36:13.808Z</time>
      </trkpt>
      <trkpt lat="47.539645" lon="8.009866">
        <ele>349.370661</ele>
        <time>2021-11-07T10:36:34.636Z</time>
      </trkpt>
      <trkpt lat="47.539703" lon="8.011107">
        <ele>350.327975</ele>
        <time>2021-11-07T10:36:51.249Z</time>
      </trkpt>
      <trkpt lat="47.539798" lon="8.012369">
        <ele>351.280031</ele>
        <time>2021-11-07T10:37:09.711Z</time>
      </trkpt>
      <trkpt lat="47.539903" lon="8.015200">
        <ele>352.134182</ele>
        <time>2021-11-07T10:37:43.825Z</time>
      </trkpt>
      <trkpt lat="47.539908" lon="8.015397">
        <ele>351.816580</ele>
        <time>2021-11-07T10:37:46.098Z</time>
      </trkpt>
      <trkpt lat="47.539918" lon="8.015722">
        <ele>351.292443</ele>
        <time>2021-11-07T10:37:48.601Z</time>
      </trkpt>
      <trkpt lat="47.539979" lon="8.017566">
        <ele>348.318096</ele>
        <time>2021-11-07T10:38:01.476Z</time>
      </trkpt>
      <trkpt lat="47.540012" lon="8.018657">
        <ele>343.555979</ele>
        <time>2021-11-07T10:38:08.212Z</time>
      </trkpt>
      <trkpt lat="47.540031" lon="8.019456">
        <ele>340.002342</ele>
        <time>2021-11-07T10:38:13.031Z</time>
      </trkpt>
      <trkpt lat="47.540052" lon="8.019825">
        <ele>338.356376</ele>
        <time>2021-11-07T10:38:15.255Z</time>
      </trkpt>
      <trkpt lat="47.540098" lon="8.020321">
        <ele>336.147829</ele>
        <time>2021-11-07T10:38:18.250Z</time>
      </trkpt>
      <trkpt lat="47.540134" lon="8.020585">
        <ele>335.019572</ele>
        <time>2021-11-07T10:38:19.845Z</time>
      </trkpt>
      <trkpt lat="47.540204" lon="8.020975">
        <ele>333.329069</ele>
        <time>2021-11-07T10:38:22.267Z</time>
      </trkpt>
      <trkpt lat="47.540354" lon="8.022332">
        <ele>327.568788</ele>
        <time>2021-11-07T10:38:30.713Z</time>
      </trkpt>
      <trkpt lat="47.540454" lon="8.023022">
        <ele>325.024059</ele>
        <time>2021-11-07T10:38:35.263Z</time>
      </trkpt>
      <trkpt lat="47.540537" lon="8.023536">
        <ele>324.213464</ele>
        <time>2021-11-07T10:38:38.877Z</time>
      </trkpt>
      <trkpt lat="47.540490" lon="8.024315">
        <ele>323.013900</ele>
        <time>2021-11-07T10:38:44.517Z</time>
      </trkpt>
      <trkpt lat="47.540408" lon="8.025334">
        <ele>321.439929</ele>
        <time>2021-11-07T10:38:52.710Z</time>
      </trkpt>
      <trkpt lat="47.540306" lon="8.026756">
        <ele>320.883694</ele>
        <time>2021-11-07T10:39:05.611Z</time>
      </trkpt>
      <trkpt lat="47.540273" lon="8.028579">
        <ele>320.638994</ele>
        <time>2021-11-07T10:39:23.480Z</time>
      </trkpt>
      <trkpt lat="47.540275" lon="8.029790">
        <ele>320.875928</ele>
        <time>2021-11-07T10:39:36.049Z</time>
      </trkpt>
      <trkpt lat="47.540324" lon="8.030594">
        <ele>321.033871</ele>
        <time>2021-11-07T10:39:45.050Z</time>
      </trkpt>
      <trkpt lat="47.540394" lon="8.031575">
        <ele>321.879773</ele>
        <time>2021-11-07T10:39:56.715Z</time>
      </trkpt>
      <trkpt lat="47.541006" lon="8.038351">
        <ele>330.583744</ele>
        <time>2021-11-07T10:41:37.445Z</time>
      </trkpt>
      <trkpt lat="47.541015" lon="8.038511">
        <ele>330.857894</ele>
        <time>2021-11-07T10:41:40.878Z</time>
      </trkpt>
      <trkpt lat="47.541029" lon="8.038776">
        <ele>331.323397</ele>
        <time>2021-11-07T10:41:48.009Z</time>
      </trkpt>
      <trkpt lat="47.540973" lon="8.039326">
        <ele>332.515812</ele>
        <time>2021-11-07T10:42:01.918Z</time>
      </trkpt>
      <trkpt lat="47.540755" lon="8.039911">
        <ele>333.948319</ele>
        <time>2021-11-07T10:42:17.419Z</time>
      </trkpt>
      <trkpt lat="47.540612" lon="8.040244">
        <ele>334.794401</ele>
        <time>2021-11-07T10:42:25.554Z</time>
      </trkpt>
      <trkpt lat="47.540564" lon="8.040358">
        <ele>335.082434</ele>
        <time>2021-11-07T10:42:27.474Z</time>
      </trkpt>
      <trkpt lat="47.540240" lon="8.040995">
        <ele>336.792272</ele>
        <time>2021-11-07T10:42:38.811Z</time>
      </trkpt>
      <trkpt lat="47.540116" lon="8.041253">
        <ele>336.853852</ele>
        <time>2021-11-07T10:42:42.294Z</time>
      </trkpt>
      <trkpt lat="47.540079" lon="8.041350">
        <ele>336.793630</ele>
        <time>2021-11-07T10:42:43.446Z</time>
      </trkpt>
      <trkpt lat="47.540031" lon="8.041477">
        <ele>336.714958</ele>
        <time>2021-11-07T10:42:44.643Z</time>
      </trkpt>
      <trkpt lat="47.539998" lon="8.041644">
        <ele>336.620904</ele>
        <time>2021-11-07T10:42:46.979Z</time>
      </trkpt>
      <trkpt lat="47.539983" lon="8.041866">
        <ele>336.500309</ele>
        <time>2021-11-07T10:42:50.324Z</time>
      </trkpt>
      <trkpt lat="47.539991" lon="8.042065">
        <ele>336.392556</ele>
        <time>2021-11-07T10:42:54.884Z</time>
      </trkpt>
      <trkpt lat="47.540021" lon="8.042268">
        <ele>336.280232</ele>
        <time>2021-11-07T10:43:00.012Z</time>
      </trkpt>
      <trkpt lat="47.540034" lon="8.042303">
        <ele>336.258639</ele>
        <time>2021-11-07T10:43:00.863Z</time>
      </trkpt>
      <trkpt lat="47.540072" lon="8.042391">
        <ele>336.202175</ele>
        <time>2021-11-07T10:43:03.168Z</time>
      </trkpt>
      <trkpt lat="47.540094" lon="8.042446">
        <ele>336.167620</ele>
        <time>2021-11-07T10:43:03.643Z</time>
      </trkpt>
      <trkpt lat="47.540115" lon="8.042499">
        <ele>336.134402</ele>
        <time>2021-11-07T10:43:04.054Z</time>
      </trkpt>
      <trkpt lat="47.540230" lon="8.042774">
        <ele>335.959551</ele>
        <time>2021-11-07T10:43:06.569Z</time>
      </trkpt>
      <trkpt lat="47.540311" lon="8.043099">
        <ele>335.772294</ele>
        <time>2021-11-07T10:43:09.199Z</time>
      </trkpt>
      <trkpt lat="47.540311" lon="8.043099">
        <ele>335.772294</ele>
        <time>2021-11-07T10:43:09.232Z</time>
      </trkpt>
      <trkpt lat="47.540311" lon="8.043099">
        <ele>335.772294</ele>
        <time>2021-11-07T10:43:09.264Z</time>
      </trkpt>
      <trkpt lat="47.540358" lon="8.043349">
        <ele>335.632023</ele>
        <time>2021-11-07T10:43:11.331Z</time>
      </trkpt>
      <trkpt lat="47.540392" lon="8.043542">
        <ele>335.509034</ele>
        <time>2021-11-07T10:43:12.830Z</time>
      </trkpt>
      <trkpt lat="47.540394" lon="8.043626">
        <ele>335.413720</ele>
        <time>2021-11-07T10:43:13.456Z</time>
      </trkpt>
      <trkpt lat="47.540360" lon="8.044061">
        <ele>334.917140</ele>
        <time>2021-11-07T10:43:16.584Z</time>
      </trkpt>
      <trkpt lat="47.540345" lon="8.044329">
        <ele>334.612189</ele>
        <time>2021-11-07T10:43:18.558Z</time>
      </trkpt>
      <trkpt lat="47.540316" lon="8.044416">
        <ele>334.502160</ele>
        <time>2021-11-07T10:43:19.305Z</time>
      </trkpt>
      <trkpt lat="47.540484" lon="8.044413">
        <ele>334.219932</ele>
        <time>2021-11-07T10:43:21.288Z</time>
      </trkpt>
      <trkpt lat="47.540685" lon="8.044388">
        <ele>333.881103</ele>
        <time>2021-11-07T10:43:23.566Z</time>
      </trkpt>
      <trkpt lat="47.540801" lon="8.044393">
        <ele>333.686163</ele>
        <time>2021-11-07T10:43:25.138Z</time>
      </trkpt>
      <trkpt lat="47.540913" lon="8.044428">
        <ele>333.493884</ele>
        <time>2021-11-07T10:43:26.390Z</time>
      </trkpt>
      <trkpt lat="47.540994" lon="8.044486">
        <ele>333.342757</ele>
        <time>2021-11-07T10:43:27.352Z</time>
      </trkpt>
      <trkpt lat="47.541082" lon="8.044576">
        <ele>333.163126</ele>
        <time>2021-11-07T10:43:29.139Z</time>
      </trkpt>
      <trkpt lat="47.541181" lon="8.044448">
        <ele>332.942391</ele>
        <time>2021-11-07T10:43:30.625Z</time>
      </trkpt>
      <trkpt lat="47.541242" lon="8.044402">
        <ele>332.827410</ele>
        <time>2021-11-07T10:43:31.326Z</time>
      </trkpt>
      <trkpt lat="47.541299" lon="8.044369">
        <ele>332.724608</ele>
        <time>2021-11-07T10:43:32.004Z</time>
      </trkpt>
      <trkpt lat="47.541407" lon="8.044320">
        <ele>332.534870</ele>
        <time>2021-11-07T10:43:33.803Z</time>
      </trkpt>
      <trkpt lat="47.541497" lon="8.044288">
        <ele>332.281278</ele>
        <time>2021-11-07T10:43:34.810Z</time>
      </trkpt>
      <trkpt lat="47.541871" lon="8.044264">
        <ele>331.202952</ele>
        <time>2021-11-07T10:43:38.953Z</time>
      </trkpt>
      <trkpt lat="47.541931" lon="8.044267">
        <ele>331.030023</ele>
        <time>2021-11-07T10:43:39.517Z</time>
      </trkpt>
      <trkpt lat="47.542130" lon="8.044303">
        <ele>330.452541</ele>
        <time>2021-11-07T10:43:41.668Z</time>
      </trkpt>
      <trkpt lat="47.542217" lon="8.044311">
        <ele>330.201453</ele>
        <time>2021-11-07T10:43:42.558Z</time>
      </trkpt>
      <trkpt lat="47.542342" lon="8.044323">
        <ele>329.840633</ele>
        <time>2021-11-07T10:43:43.766Z</time>
      </trkpt>
      <trkpt lat="47.542515" lon="8.044335">
        <ele>329.341757</ele>
        <time>2021-11-07T10:43:45.554Z</time>
      </trkpt>
      <trkpt lat="47.542941" lon="8.044348">
        <ele>328.114394</ele>
        <time>2021-11-07T10:43:49.678Z</time>
      </trkpt>
      <trkpt lat="47.543113" lon="8.044348">
        <ele>327.618945</ele>
        <time>2021-11-07T10:43:51.366Z</time>
      </trkpt>
      <trkpt lat="47.543344" lon="8.044345">
        <ele>327.085991</ele>
        <time>2021-11-07T10:43:53.778Z</time>
      </trkpt>
      <trkpt lat="47.543429" lon="8.044346">
        <ele>326.926026</ele>
        <time>2021-11-07T10:43:54.606Z</time>
      </trkpt>
      <trkpt lat="47.543537" lon="8.044348">
        <ele>326.722766</ele>
        <time>2021-11-07T10:43:55.757Z</time>
      </trkpt>
      <trkpt lat="47.543748" lon="8.044351">
        <ele>326.325669</ele>
        <time>2021-11-07T10:43:58.088Z</time>
      </trkpt>
      <trkpt lat="47.543766" lon="8.044352">
        <ele>326.291771</ele>
        <time>2021-11-07T10:43:58.265Z</time>
      </trkpt>
      <trkpt lat="47.544716" lon="8.044385">
        <ele>324.503486</ele>
        <time>2021-11-07T10:44:09.269Z</time>
      </trkpt>
      <trkpt lat="47.544756" lon="8.044387">
        <ele>324.428167</ele>
        <time>2021-11-07T10:44:09.711Z</time>
      </trkpt>
      <trkpt lat="47.544980" lon="8.044395">
        <ele>324.006502</ele>
        <time>2021-11-07T10:44:12.434Z</time>
      </trkpt>
      <trkpt lat="47.545593" lon="8.044410">
        <ele>323.482584</ele>
        <time>2021-11-07T10:44:19.994Z</time>
      </trkpt>
      <trkpt lat="47.545699" lon="8.044413">
        <ele>323.397510</ele>
        <time>2021-11-07T10:44:21.402Z</time>
      </trkpt>
      <trkpt lat="47.546375" lon="8.044435">
        <ele>322.854935</ele>
        <time>2021-11-07T10:44:29.749Z</time>
      </trkpt>
      <trkpt lat="47.546609" lon="8.044441">
        <ele>322.667137</ele>
        <time>2021-11-07T10:44:32.782Z</time>
      </trkpt>
      <trkpt lat="47.547110" lon="8.044384">
        <ele>322.308164</ele>
        <time>2021-11-07T10:44:39.496Z</time>
      </trkpt>
      <trkpt lat="47.547324" lon="8.044298">
        <ele>322.162550</ele>
        <time>2021-11-07T10:44:42.685Z</time>
      </trkpt>
      <trkpt lat="47.547545" lon="8.044164">
        <ele>322.005732</ele>
        <time>2021-11-07T10:44:45.902Z</time>
      </trkpt>
      <trkpt lat="47.547710" lon="8.044026">
        <ele>321.881300</ele>
        <time>2021-11-07T10:44:48.526Z</time>
      </trkpt>
      <trkpt lat="47.547874" lon="8.043865">
        <ele>321.752101</ele>
        <time>2021-11-07T10:44:51.045Z</time>
      </trkpt>
      <trkpt lat="47.548086" lon="8.043564">
        <ele>321.559268</ele>
        <time>2021-11-07T10:44:54.843Z</time>
      </trkpt>
      <trkpt lat="47.548321" lon="8.043094">
        <ele>321.257391</ele>
        <time>2021-11-07T10:44:59.729Z</time>
      </trkpt>
      <trkpt lat="47.548412" lon="8.042841">
        <ele>320.924450</ele>
        <time>2021-11-07T10:45:02.009Z</time>
      </trkpt>
      <trkpt lat="47.548524" lon="8.042433">
        <ele>320.412926</ele>
        <time>2021-11-07T10:45:05.398Z</time>
      </trkpt>
      <trkpt lat="47.548724" lon="8.041601">
        <ele>319.387225</ele>
        <time>2021-11-07T10:45:12.168Z</time>
      </trkpt>
      <trkpt lat="47.548827" lon="8.041204">
        <ele>318.893279</ele>
        <time>2021-11-07T10:45:15.346Z</time>
      </trkpt>
      <trkpt lat="47.548984" lon="8.040683">
        <ele>318.230545</ele>
        <time>2021-11-07T10:45:19.491Z</time>
      </trkpt>
      <trkpt lat="47.549410" lon="8.039725">
        <ele>316.736411</ele>
        <time>2021-11-07T10:45:27.675Z</time>
      </trkpt>
      <trkpt lat="47.549870" lon="8.038947">
        <ele>315.389362</ele>
        <time>2021-11-07T10:45:35.307Z</time>
      </trkpt>
      <trkpt lat="47.549942" lon="8.038834">
        <ele>315.186976</ele>
        <time>2021-11-07T10:45:36.518Z</time>
      </trkpt>
      <trkpt lat="47.550081" lon="8.038625">
        <ele>314.804838</ele>
        <time>2021-11-07T10:45:38.959Z</time>
      </trkpt>
      <trkpt lat="47.550288" lon="8.038288">
        <ele>314.655135</ele>
        <time>2021-11-07T10:45:42.839Z</time>
      </trkpt>
      <trkpt lat="47.550415" lon="8.038099">
        <ele>314.588301</ele>
        <time>2021-11-07T10:45:45.105Z</time>
      </trkpt>
      <trkpt lat="47.550520" lon="8.037972">
        <ele>314.537974</ele>
        <time>2021-11-07T10:45:47.236Z</time>
      </trkpt>
      <trkpt lat="47.550627" lon="8.037879">
        <ele>314.491914</ele>
        <time>2021-11-07T10:45:48.812Z</time>
      </trkpt>
      <trkpt lat="47.550697" lon="8.037820">
        <ele>314.462013</ele>
        <time>2021-11-07T10:45:49.945Z</time>
      </trkpt>
      <trkpt lat="47.551038" lon="8.037822">
        <ele>314.335401</ele>
        <time>2021-11-07T10:45:54.802Z</time>
      </trkpt>
      <trkpt lat="47.551249" lon="8.038008">
        <ele>314.244241</ele>
        <time>2021-11-07T10:45:58.455Z</time>
      </trkpt>
      <trkpt lat="47.551401" lon="8.038402">
        <ele>314.130515</ele>
        <time>2021-11-07T10:46:03.197Z</time>
      </trkpt>
      <trkpt lat="47.551405" lon="8.038736">
        <ele>314.137830</ele>
        <time>2021-11-07T10:46:06.295Z</time>
      </trkpt>
      <trkpt lat="47.551379" lon="8.038856">
        <ele>314.168423</ele>
        <time>2021-11-07T10:46:07.822Z</time>
      </trkpt>
      <trkpt lat="47.551371" lon="8.038893">
        <ele>314.177854</ele>
        <time>2021-11-07T10:46:08.170Z</time>
      </trkpt>
      <trkpt lat="47.551237" lon="8.039168">
        <ele>314.260186</ele>
        <time>2021-11-07T10:46:11.266Z</time>
      </trkpt>
      <trkpt lat="47.551141" lon="8.039284">
        <ele>314.304739</ele>
        <time>2021-11-07T10:46:13.492Z</time>
      </trkpt>
      <trkpt lat="47.551141" lon="8.039284">
        <ele>314.304739</ele>
        <time>2021-11-07T10:46:13.561Z</time>
      </trkpt>
      <trkpt lat="47.551141" lon="8.039284">
        <ele>314.304739</ele>
        <time>2021-11-07T10:46:13.588Z</time>
      </trkpt>
      <trkpt lat="47.551001" lon="8.039426">
        <ele>314.365758</ele>
        <time>2021-11-07T10:46:16.040Z</time>
      </trkpt>
      <trkpt lat="47.550515" lon="8.038174">
        <ele>314.716350</ele>
        <time>2021-11-07T10:46:32.470Z</time>
      </trkpt>
      <trkpt lat="47.550424" lon="8.037956">
        <ele>314.835923</ele>
        <time>2021-11-07T10:46:35.514Z</time>
      </trkpt>
      <trkpt lat="47.550111" lon="8.037123">
        <ele>315.410799</ele>
        <time>2021-11-07T10:46:47.888Z</time>
      </trkpt>
      <trkpt lat="47.549832" lon="8.036349">
        <ele>315.939899</ele>
        <time>2021-11-07T10:46:59.171Z</time>
      </trkpt>
      <trkpt lat="47.549753" lon="8.036077">
        <ele>316.118453</ele>
        <time>2021-11-07T10:47:02.660Z</time>
      </trkpt>
      <trkpt lat="47.549699" lon="8.035900">
        <ele>316.235578</ele>
        <time>2021-11-07T10:47:05.107Z</time>
      </trkpt>
      <trkpt lat="47.549632" lon="8.035633">
        <ele>316.364194</ele>
        <time>2021-11-07T10:47:08.593Z</time>
      </trkpt>
      <trkpt lat="47.549554" lon="8.035288">
        <ele>316.427215</ele>
        <time>2021-11-07T10:47:12.885Z</time>
      </trkpt>
      <trkpt lat="47.549494" lon="8.034935">
        <ele>316.490267</ele>
        <time>2021-11-07T10:47:16.869Z</time>
      </trkpt>
      <trkpt lat="47.549442" lon="8.034584">
        <ele>316.552511</ele>
        <time>2021-11-07T10:47:20.725Z</time>
      </trkpt>
      <trkpt lat="47.549395" lon="8.034029">
        <ele>316.649396</ele>
        <time>2021-11-07T10:47:26.786Z</time>
      </trkpt>
      <trkpt lat="47.549394" lon="8.034003">
        <ele>316.653907</ele>
        <time>2021-11-07T10:47:27.100Z</time>
      </trkpt>
      <trkpt lat="47.549386" lon="8.033799">
        <ele>316.689302</ele>
        <time>2021-11-07T10:47:29.265Z</time>
      </trkpt>
      <trkpt lat="47.549374" lon="8.033423">
        <ele>316.754501</ele>
        <time>2021-11-07T10:47:32.899Z</time>
      </trkpt>
      <trkpt lat="47.549363" lon="8.032869">
        <ele>316.820479</ele>
        <time>2021-11-07T10:47:38.154Z</time>
      </trkpt>
      <trkpt lat="47.549368" lon="8.032544">
        <ele>316.836653</ele>
        <time>2021-11-07T10:47:41.129Z</time>
      </trkpt>
      <trkpt lat="47.549372" lon="8.031883">
        <ele>316.869540</ele>
        <time>2021-11-07T10:47:47.485Z</time>
      </trkpt>
      <trkpt lat="47.549378" lon="8.030790">
        <ele>316.923919</ele>
        <time>2021-11-07T10:47:58.814Z</time>
      </trkpt>
      <trkpt lat="47.549380" lon="8.030702">
        <ele>316.928300</ele>
        <time>2021-11-07T10:47:59.654Z</time>
      </trkpt>
      <trkpt lat="47.549418" lon="8.028906">
        <ele>317.464352</ele>
        <time>2021-11-07T10:48:20.362Z</time>
      </trkpt>
      <trkpt lat="47.549431" lon="8.028306">
        <ele>317.668057</ele>
        <time>2021-11-07T10:48:27.106Z</time>
      </trkpt>
      <trkpt lat="47.549445" lon="8.027599">
        <ele>317.914345</ele>
        <time>2021-11-07T10:48:35.283Z</time>
      </trkpt>
      <trkpt lat="47.549454" lon="8.027138">
        <ele>318.086473</ele>
        <time>2021-11-07T10:48:40.809Z</time>
      </trkpt>
      <trkpt lat="47.549436" lon="8.026046">
        <ele>318.494156</ele>
        <time>2021-11-07T10:48:54.093Z</time>
      </trkpt>
      <trkpt lat="47.549322" lon="8.024323">
        <ele>318.793464</ele>
        <time>2021-11-07T10:49:12.698Z</time>
      </trkpt>
      <trkpt lat="47.549268" lon="8.023385">
        <ele>318.739273</ele>
        <time>2021-11-07T10:49:22.145Z</time>
      </trkpt>
      <trkpt lat="47.549201" lon="8.022146">
        <ele>318.468807</ele>
        <time>2021-11-07T10:49:33.361Z</time>
      </trkpt>
      <trkpt lat="47.549191" lon="8.021436">
        <ele>317.992843</ele>
        <time>2021-11-07T10:49:39.329Z</time>
      </trkpt>
      <trkpt lat="47.549186" lon="8.021006">
        <ele>317.704603</ele>
        <time>2021-11-07T10:49:42.913Z</time>
      </trkpt>
      <trkpt lat="47.549208" lon="8.019997">
        <ele>317.027993</ele>
        <time>2021-11-07T10:49:51.147Z</time>
      </trkpt>
      <trkpt lat="47.549261" lon="8.017878">
        <ele>314.922483</ele>
        <time>2021-11-07T10:50:07.268Z</time>
      </trkpt>
      <trkpt lat="47.549256" lon="8.017769">
        <ele>314.810523</ele>
        <time>2021-11-07T10:50:08.133Z</time>
      </trkpt>
      <trkpt lat="47.549291" lon="8.017761">
        <ele>314.756754</ele>
        <time>2021-11-07T10:50:08.529Z</time>
      </trkpt>
      <trkpt lat="47.549324" lon="8.017738">
        <ele>314.701383</ele>
        <time>2021-11-07T10:50:08.919Z</time>
      </trkpt>
      <trkpt lat="47.549351" lon="8.017702">
        <ele>314.646232</ele>
        <time>2021-11-07T10:50:09.321Z</time>
      </trkpt>
      <trkpt lat="47.549370" lon="8.017656">
        <ele>314.590965</ele>
        <time>2021-11-07T10:50:09.780Z</time>
      </trkpt>
      <trkpt lat="47.549379" lon="8.017603">
        <ele>314.534959</ele>
        <time>2021-11-07T10:50:10.186Z</time>
      </trkpt>
      <trkpt lat="47.549377" lon="8.017547">
        <ele>314.477491</ele>
        <time>2021-11-07T10:50:10.744Z</time>
      </trkpt>
      <trkpt lat="47.549310" lon="8.017418">
        <ele>314.310684</ele>
        <time>2021-11-07T10:50:12.091Z</time>
      </trkpt>
      <trkpt lat="47.549274" lon="8.017401">
        <ele>314.253316</ele>
        <time>2021-11-07T10:50:12.572Z</time>
      </trkpt>
      <trkpt lat="47.549281" lon="8.017304">
        <ele>314.156545</ele>
        <time>2021-11-07T10:50:13.288Z</time>
      </trkpt>
      <trkpt lat="47.549431" lon="8.015998">
        <ele>313.068148</ele>
        <time>2021-11-07T10:50:24.032Z</time>
      </trkpt>
      <trkpt lat="47.549589" lon="8.015316">
        <ele>312.475750</ele>
        <time>2021-11-07T10:50:29.876Z</time>
      </trkpt>
      <trkpt lat="47.549795" lon="8.014667">
        <ele>311.869971</ele>
        <time>2021-11-07T10:50:35.692Z</time>
      </trkpt>
      <trkpt lat="47.549871" lon="8.014427">
        <ele>311.613626</ele>
        <time>2021-11-07T10:50:37.827Z</time>
      </trkpt>
      <trkpt lat="47.550001" lon="8.014034">
        <ele>311.190423</ele>
        <time>2021-11-07T10:50:41.215Z</time>
      </trkpt>
      <trkpt lat="47.550565" lon="8.012461">
        <ele>309.468094</ele>
        <time>2021-11-07T10:50:54.823Z</time>
      </trkpt>
      <trkpt lat="47.550764" lon="8.011985">
        <ele>309.336412</ele>
        <time>2021-11-07T10:50:59.322Z</time>
      </trkpt>
      <trkpt lat="47.551187" lon="8.011080">
        <ele>309.187031</ele>
        <time>2021-11-07T10:51:09.440Z</time>
      </trkpt>
      <trkpt lat="47.551275" lon="8.010934">
        <ele>309.160469</ele>
        <time>2021-11-07T10:51:11.250Z</time>
      </trkpt>
      <trkpt lat="47.551902" lon="8.009884">
        <ele>309.414373</ele>
        <time>2021-11-07T10:51:28.204Z</time>
      </trkpt>
      <trkpt lat="47.552604" lon="8.008677">
        <ele>310.542205</ele>
        <time>2021-11-07T10:51:50.684Z</time>
      </trkpt>
      <trkpt lat="47.552640" lon="8.008615">
        <ele>310.600097</ele>
        <time>2021-11-07T10:51:52.270Z</time>
      </trkpt>
      <trkpt lat="47.552935" lon="8.007851">
        <ele>310.765828</ele>
        <time>2021-11-07T10:52:01.869Z</time>
      </trkpt>
      <trkpt lat="47.553173" lon="8.006642">
        <ele>310.275697</ele>
        <time>2021-11-07T10:52:12.671Z</time>
      </trkpt>
      <trkpt lat="47.553211" lon="8.006270">
        <ele>310.129273</ele>
        <time>2021-11-07T10:52:15.885Z</time>
      </trkpt>
      <trkpt lat="47.553220" lon="8.006182">
        <ele>310.094634</ele>
        <time>2021-11-07T10:52:16.476Z</time>
      </trkpt>
      <trkpt lat="47.553251" lon="8.005657">
        <ele>309.890401</ele>
        <time>2021-11-07T10:52:20.724Z</time>
      </trkpt>
      <trkpt lat="47.553256" lon="8.004837">
        <ele>309.776907</ele>
        <time>2021-11-07T10:52:27.648Z</time>
      </trkpt>
      <trkpt lat="47.553266" lon="8.003502">
        <ele>309.592131</ele>
        <time>2021-11-07T10:52:40.236Z</time>
      </trkpt>
      <trkpt lat="47.553270" lon="8.002465">
        <ele>309.825141</ele>
        <time>2021-11-07T10:52:52.907Z</time>
      </trkpt>
      <trkpt lat="47.553271" lon="8.002109">
        <ele>310.028521</ele>
        <time>2021-11-07T10:52:57.885Z</time>
      </trkpt>
      <trkpt lat="47.553273" lon="8.001687">
        <ele>310.269611</ele>
        <time>2021-11-07T10:53:03.565Z</time>
      </trkpt>
      <trkpt lat="47.553275" lon="7.999860">
        <ele>310.879969</ele>
        <time>2021-11-07T10:53:25.752Z</time>
      </trkpt>
      <trkpt lat="47.553278" lon="7.999508">
        <ele>310.756848</ele>
        <time>2021-11-07T10:53:29.298Z</time>
      </trkpt>
      <trkpt lat="47.553287" lon="7.998380">
        <ele>310.362307</ele>
        <time>2021-11-07T10:53:39.065Z</time>
      </trkpt>
      <trkpt lat="47.553287" lon="7.997190">
        <ele>309.610067</ele>
        <time>2021-11-07T10:53:48.364Z</time>
      </trkpt>
      <trkpt lat="47.553279" lon="7.996528">
        <ele>308.910694</ele>
        <time>2021-11-07T10:53:53.380Z</time>
      </trkpt>
      <trkpt lat="47.553268" lon="7.996252">
        <ele>308.618651</ele>
        <time>2021-11-07T10:53:55.452Z</time>
      </trkpt>
      <trkpt lat="47.553246" lon="7.995617">
        <ele>307.947025</ele>
        <time>2021-11-07T10:54:00.303Z</time>
      </trkpt>
      <trkpt lat="47.553164" lon="7.993925">
        <ele>306.654823</ele>
        <time>2021-11-07T10:54:13.633Z</time>
      </trkpt>
      <trkpt lat="47.553156" lon="7.993696">
        <ele>306.518559</ele>
        <time>2021-11-07T10:54:15.632Z</time>
      </trkpt>
      <trkpt lat="47.553137" lon="7.993190">
        <ele>306.217407</ele>
        <time>2021-11-07T10:54:20.088Z</time>
      </trkpt>
      <trkpt lat="47.553130" lon="7.993014">
        <ele>306.112639</ele>
        <time>2021-11-07T10:54:21.690Z</time>
      </trkpt>
      <trkpt lat="47.553107" lon="7.992226">
        <ele>305.595269</ele>
        <time>2021-11-07T10:54:28.920Z</time>
      </trkpt>
      <trkpt lat="47.553091" lon="7.991915">
        <ele>305.280698</ele>
        <time>2021-11-07T10:54:32.069Z</time>
      </trkpt>
      <trkpt lat="47.553050" lon="7.990744">
        <ele>304.098090</ele>
        <time>2021-11-07T10:54:41.762Z</time>
      </trkpt>
      <trkpt lat="47.553126" lon="7.990240">
        <ele>303.577245</ele>
        <time>2021-11-07T10:54:45.674Z</time>
      </trkpt>
      <trkpt lat="47.553146" lon="7.990113">
        <ele>303.445717</ele>
        <time>2021-11-07T10:54:46.603Z</time>
      </trkpt>
      <trkpt lat="47.553163" lon="7.990004">
        <ele>303.332888</ele>
        <time>2021-11-07T10:54:47.388Z</time>
      </trkpt>
      <trkpt lat="47.553214" lon="7.989758">
        <ele>303.073342</ele>
        <time>2021-11-07T10:54:49.166Z</time>
      </trkpt>
      <trkpt lat="47.553253" lon="7.989578">
        <ele>302.671670</ele>
        <time>2021-11-07T10:54:50.456Z</time>
      </trkpt>
      <trkpt lat="47.553352" lon="7.989142">
        <ele>301.524262</ele>
        <time>2021-11-07T10:54:53.552Z</time>
      </trkpt>
      <trkpt lat="47.553424" lon="7.988762">
        <ele>300.539789</ele>
        <time>2021-11-07T10:54:56.197Z</time>
      </trkpt>
      <trkpt lat="47.553410" lon="7.988607">
        <ele>300.149729</ele>
        <time>2021-11-07T10:54:57.228Z</time>
      </trkpt>
      <trkpt lat="47.553343" lon="7.988401">
        <ele>299.579353</ele>
        <time>2021-11-07T10:54:58.750Z</time>
      </trkpt>
      <trkpt lat="47.553232" lon="7.988247">
        <ele>299.017359</ele>
        <time>2021-11-07T10:55:00.221Z</time>
      </trkpt>
      <trkpt lat="47.552867" lon="7.987810">
        <ele>297.283058</ele>
        <time>2021-11-07T10:55:04.790Z</time>
      </trkpt>
      <trkpt lat="47.552713" lon="7.987638">
        <ele>296.570324</ele>
        <time>2021-11-07T10:55:06.628Z</time>
      </trkpt>
      <trkpt lat="47.552504" lon="7.987369">
        <ele>295.968635</ele>
        <time>2021-11-07T10:55:09.339Z</time>
      </trkpt>
      <trkpt lat="47.552436" lon="7.987273">
        <ele>295.797483</ele>
        <time>2021-11-07T10:55:10.281Z</time>
      </trkpt>
      <trkpt lat="47.552224" lon="7.986975">
        <ele>295.264988</ele>
        <time>2021-11-07T10:55:13.267Z</time>
      </trkpt>
      <trkpt lat="47.552152" lon="7.986883">
        <ele>295.091739</ele>
        <time>2021-11-07T10:55:14.246Z</time>
      </trkpt>
      <trkpt lat="47.551971" lon="7.986555">
        <ele>294.570679</ele>
        <time>2021-11-07T10:55:17.246Z</time>
      </trkpt>
      <trkpt lat="47.551917" lon="7.986288">
        <ele>294.227883</ele>
        <time>2021-11-07T10:55:19.326Z</time>
      </trkpt>
      <trkpt lat="47.551915" lon="7.986209">
        <ele>294.130656</ele>
        <time>2021-11-07T10:55:19.887Z</time>
      </trkpt>
      <trkpt lat="47.551898" lon="7.985654">
        <ele>293.447387</ele>
        <time>2021-11-07T10:55:25.395Z</time>
      </trkpt>
      <trkpt lat="47.551939" lon="7.985151">
        <ele>293.428493</ele>
        <time>2021-11-07T10:55:31.549Z</time>
      </trkpt>
      <trkpt lat="47.551934" lon="7.984260">
        <ele>294.725063</ele>
        <time>2021-11-07T10:55:45.136Z</time>
      </trkpt>
      <trkpt lat="47.551993" lon="7.984014">
        <ele>295.104955</ele>
        <time>2021-11-07T10:55:48.741Z</time>
      </trkpt>
      <trkpt lat="47.552007" lon="7.983931">
        <ele>295.229446</ele>
        <time>2021-11-07T10:55:50.315Z</time>
      </trkpt>
      <trkpt lat="47.552005" lon="7.983849">
        <ele>295.348845</ele>
        <time>2021-11-07T10:55:52.397Z</time>
      </trkpt>
      <trkpt lat="47.551911" lon="7.983632">
        <ele>295.724051</ele>
        <time>2021-11-07T10:55:56.590Z</time>
      </trkpt>
      <trkpt lat="47.551892" lon="7.983447">
        <ele>295.996350</ele>
        <time>2021-11-07T10:55:59.933Z</time>
      </trkpt>
      <trkpt lat="47.551861" lon="7.981113">
        <ele>299.338297</ele>
        <time>2021-11-07T10:56:43.224Z</time>
      </trkpt>
      <trkpt lat="47.551865" lon="7.980584">
        <ele>300.090577</ele>
        <time>2021-11-07T10:56:49.864Z</time>
      </trkpt>
      <trkpt lat="47.551873" lon="7.980135">
        <ele>300.729272</ele>
        <time>2021-11-07T10:56:54.621Z</time>
      </trkpt>
      <trkpt lat="47.551933" lon="7.979363">
        <ele>300.558782</ele>
        <time>2021-11-07T10:57:02.979Z</time>
      </trkpt>
      <trkpt lat="47.551923" lon="7.979308">
        <ele>300.542847</ele>
        <time>2021-11-07T10:57:03.347Z</time>
      </trkpt>
      <trkpt lat="47.551901" lon="7.979190">
        <ele>300.508599</ele>
        <time>2021-11-07T10:57:04.318Z</time>
      </trkpt>
      <trkpt lat="47.551829" lon="7.976305">
        <ele>299.976768</ele>
        <time>2021-11-07T10:57:29.367Z</time>
      </trkpt>
      <trkpt lat="47.551793" lon="7.974325">
        <ele>299.893984</ele>
        <time>2021-11-07T10:57:51.480Z</time>
      </trkpt>
      <trkpt lat="47.551755" lon="7.972603">
        <ele>299.812553</ele>
        <time>2021-11-07T10:58:08.778Z</time>
      </trkpt>
      <trkpt lat="47.551725" lon="7.970823">
        <ele>299.329757</ele>
        <time>2021-11-07T10:58:24.007Z</time>
      </trkpt>
      <trkpt lat="47.551734" lon="7.970034">
        <ele>299.051447</ele>
        <time>2021-11-07T10:58:30.967Z</time>
      </trkpt>
      <trkpt lat="47.551750" lon="7.968659">
        <ele>298.904207</ele>
        <time>2021-11-07T10:58:44.157Z</time>
      </trkpt>
      <trkpt lat="47.551825" lon="7.968445">
        <ele>298.920396</ele>
        <time>2021-11-07T10:58:46.409Z</time>
      </trkpt>
      <trkpt lat="47.551847" lon="7.968315">
        <ele>298.929395</ele>
        <time>2021-11-07T10:58:47.880Z</time>
      </trkpt>
      <trkpt lat="47.551839" lon="7.968208">
        <ele>298.936623</ele>
        <time>2021-11-07T10:58:49.082Z</time>
      </trkpt>
      <trkpt lat="47.551767" lon="7.967910">
        <ele>298.957874</ele>
        <time>2021-11-07T10:58:52.315Z</time>
      </trkpt>
      <trkpt lat="47.551902" lon="7.964650">
        <ele>299.529694</ele>
        <time>2021-11-07T10:59:28.716Z</time>
      </trkpt>
      <trkpt lat="47.551918" lon="7.963725">
        <ele>299.539335</ele>
        <time>2021-11-07T10:59:38.114Z</time>
      </trkpt>
      <trkpt lat="47.551906" lon="7.962453">
        <ele>299.280312</ele>
        <time>2021-11-07T10:59:50.044Z</time>
      </trkpt>
      <trkpt lat="47.551859" lon="7.961133">
        <ele>298.981823</ele>
        <time>2021-11-07T11:00:01.628Z</time>
      </trkpt>
      <trkpt lat="47.551894" lon="7.960729">
        <ele>298.868582</ele>
        <time>2021-11-07T11:00:05.379Z</time>
      </trkpt>
      <trkpt lat="47.551882" lon="7.960631">
        <ele>298.840892</ele>
        <time>2021-11-07T11:00:06.148Z</time>
      </trkpt>
      <trkpt lat="47.551865" lon="7.960528">
        <ele>298.811412</ele>
        <time>2021-11-07T11:00:07.095Z</time>
      </trkpt>
      <trkpt lat="47.551677" lon="7.960100">
        <ele>298.669439</ele>
        <time>2021-11-07T11:00:11.618Z</time>
      </trkpt>
      <trkpt lat="47.551300" lon="7.958844">
        <ele>298.346997</ele>
        <time>2021-11-07T11:00:24.529Z</time>
      </trkpt>
      <trkpt lat="47.550869" lon="7.957700">
        <ele>298.326453</ele>
        <time>2021-11-07T11:00:37.612Z</time>
      </trkpt>
      <trkpt lat="47.550745" lon="7.957569">
        <ele>298.322915</ele>
        <time>2021-11-07T11:00:39.903Z</time>
      </trkpt>
      <trkpt lat="47.550735" lon="7.957541">
        <ele>298.322418</ele>
        <time>2021-11-07T11:00:40.353Z</time>
      </trkpt>
      <trkpt lat="47.550613" lon="7.957254">
        <ele>298.317099</ele>
        <time>2021-11-07T11:00:43.615Z</time>
      </trkpt>
      <trkpt lat="47.550549" lon="7.957126">
        <ele>298.314601</ele>
        <time>2021-11-07T11:00:45.217Z</time>
      </trkpt>
      <trkpt lat="47.550445" lon="7.956918">
        <ele>298.310542</ele>
        <time>2021-11-07T11:00:47.861Z</time>
      </trkpt>
      <trkpt lat="47.550380" lon="7.956806">
        <ele>298.311961</ele>
        <time>2021-11-07T11:00:49.330Z</time>
      </trkpt>
      <trkpt lat="47.550205" lon="7.956552">
        <ele>298.344703</ele>
        <time>2021-11-07T11:00:53.161Z</time>
      </trkpt>
      <trkpt lat="47.550188" lon="7.956528">
        <ele>298.347842</ele>
        <time>2021-11-07T11:00:53.424Z</time>
      </trkpt>
      <trkpt lat="47.549444" lon="7.955496">
        <ele>298.484056</ele>
        <time>2021-11-07T11:01:09.585Z</time>
      </trkpt>
      <trkpt lat="47.549157" lon="7.955099">
        <ele>298.536534</ele>
        <time>2021-11-07T11:01:15.397Z</time>
      </trkpt>
      <trkpt lat="47.549042" lon="7.954942">
        <ele>298.565552</ele>
        <time>2021-11-07T11:01:17.653Z</time>
      </trkpt>
      <trkpt lat="47.548833" lon="7.954652">
        <ele>298.641420</ele>
        <time>2021-11-07T11:01:22.138Z</time>
      </trkpt>
      <trkpt lat="47.548542" lon="7.954269">
        <ele>298.744549</ele>
        <time>2021-11-07T11:01:28.265Z</time>
      </trkpt>
      <trkpt lat="47.548342" lon="7.954009">
        <ele>298.815046</ele>
        <time>2021-11-07T11:01:32.484Z</time>
      </trkpt>
      <trkpt lat="47.548251" lon="7.953895">
        <ele>298.846621</ele>
        <time>2021-11-07T11:01:34.412Z</time>
      </trkpt>
      <trkpt lat="47.548115" lon="7.953729">
        <ele>298.893307</ele>
        <time>2021-11-07T11:01:37.281Z</time>
      </trkpt>
      <trkpt lat="47.547994" lon="7.953584">
        <ele>298.934541</ele>
        <time>2021-11-07T11:01:39.843Z</time>
      </trkpt>
      <trkpt lat="47.547871" lon="7.953437">
        <ele>298.976411</ele>
        <time>2021-11-07T11:01:42.434Z</time>
      </trkpt>
      <trkpt lat="47.547797" lon="7.953355">
        <ele>299.000895</ele>
        <time>2021-11-07T11:01:43.937Z</time>
      </trkpt>
      <trkpt lat="47.547624" lon="7.953160">
        <ele>299.074707</ele>
        <time>2021-11-07T11:01:47.431Z</time>
      </trkpt>
      <trkpt lat="47.547550" lon="7.953078">
        <ele>299.111310</ele>
        <time>2021-11-07T11:01:48.931Z</time>
      </trkpt>
      <trkpt lat="47.547458" lon="7.952975">
        <ele>299.156985</ele>
        <time>2021-11-07T11:01:50.759Z</time>
      </trkpt>
      <trkpt lat="47.547400" lon="7.952910">
        <ele>299.185790</ele>
        <time>2021-11-07T11:01:51.925Z</time>
      </trkpt>
      <trkpt lat="47.547090" lon="7.952543">
        <ele>299.342966</ele>
        <time>2021-11-07T11:01:58.314Z</time>
      </trkpt>
      <trkpt lat="47.546935" lon="7.952372">
        <ele>299.419512</ele>
        <time>2021-11-07T11:02:01.472Z</time>
      </trkpt>
      <trkpt lat="47.546776" lon="7.952185">
        <ele>299.499923</ele>
        <time>2021-11-07T11:02:04.914Z</time>
      </trkpt>
      <trkpt lat="47.546695" lon="7.952091">
        <ele>299.540677</ele>
        <time>2021-11-07T11:02:06.690Z</time>
      </trkpt>
      <trkpt lat="47.546634" lon="7.952024">
        <ele>299.570754</ele>
        <time>2021-11-07T11:02:08.012Z</time>
      </trkpt>
      <trkpt lat="47.546421" lon="7.951793">
        <ele>299.675311</ele>
        <time>2021-11-07T11:02:12.576Z</time>
      </trkpt>
      <trkpt lat="47.546231" lon="7.951558">
        <ele>299.715273</ele>
        <time>2021-11-07T11:02:16.733Z</time>
      </trkpt>
      <trkpt lat="47.546212" lon="7.951535">
        <ele>299.708958</ele>
        <time>2021-11-07T11:02:17.144Z</time>
      </trkpt>
      <trkpt lat="47.546135" lon="7.951406">
        <ele>299.679042</ele>
        <time>2021-11-07T11:02:18.906Z</time>
      </trkpt>
      <trkpt lat="47.545886" lon="7.951110">
        <ele>299.596873</ele>
        <time>2021-11-07T11:02:23.773Z</time>
      </trkpt>
      <trkpt lat="47.545824" lon="7.951061">
        <ele>299.578787</ele>
        <time>2021-11-07T11:02:24.821Z</time>
      </trkpt>
      <trkpt lat="47.545759" lon="7.950982">
        <ele>299.557148</ele>
        <time>2021-11-07T11:02:26.093Z</time>
      </trkpt>
      <trkpt lat="47.545727" lon="7.950947">
        <ele>299.546911</ele>
        <time>2021-11-07T11:02:26.830Z</time>
      </trkpt>
      <trkpt lat="47.545625" lon="7.950829">
        <ele>299.513602</ele>
        <time>2021-11-07T11:02:28.524Z</time>
      </trkpt>
      <trkpt lat="47.545567" lon="7.950765">
        <ele>299.494988</ele>
        <time>2021-11-07T11:02:29.526Z</time>
      </trkpt>
      <trkpt lat="47.545494" lon="7.950684">
        <ele>299.471514</ele>
        <time>2021-11-07T11:02:30.768Z</time>
      </trkpt>
      <trkpt lat="47.545434" lon="7.950668">
        <ele>299.455823</ele>
        <time>2021-11-07T11:02:31.756Z</time>
      </trkpt>
      <trkpt lat="47.545166" lon="7.950366">
        <ele>299.369159</ele>
        <time>2021-11-07T11:02:36.116Z</time>
      </trkpt>
      <trkpt lat="47.544901" lon="7.950044">
        <ele>299.280946</ele>
        <time>2021-11-07T11:02:40.352Z</time>
      </trkpt>
      <trkpt lat="47.544521" lon="7.949558">
        <ele>299.320369</ele>
        <time>2021-11-07T11:02:46.541Z</time>
      </trkpt>
      <trkpt lat="47.544239" lon="7.949202">
        <ele>299.355241</ele>
        <time>2021-11-07T11:02:51.449Z</time>
      </trkpt>
      <trkpt lat="47.543864" lon="7.948694">
        <ele>299.403068</ele>
        <time>2021-11-07T11:02:59.412Z</time>
      </trkpt>
      <trkpt lat="47.543760" lon="7.948548">
        <ele>299.416553</ele>
        <time>2021-11-07T11:03:01.654Z</time>
      </trkpt>
      <trkpt lat="47.543579" lon="7.948287">
        <ele>299.440327</ele>
        <time>2021-11-07T11:03:07.372Z</time>
      </trkpt>
      <trkpt lat="47.543532" lon="7.948214">
        <ele>299.502121</ele>
        <time>2021-11-07T11:03:08.498Z</time>
      </trkpt>
      <trkpt lat="47.543435" lon="7.948000">
        <ele>299.924803</ele>
        <time>2021-11-07T11:03:11.560Z</time>
      </trkpt>
      <trkpt lat="47.543407" lon="7.947938">
        <ele>300.047123</ele>
        <time>2021-11-07T11:03:13.418Z</time>
      </trkpt>
      <trkpt lat="47.543280" lon="7.947656">
        <ele>300.603005</ele>
        <time>2021-11-07T11:03:17.904Z</time>
      </trkpt>
      <trkpt lat="47.543142" lon="7.947250">
        <ele>301.348390</ele>
        <time>2021-11-07T11:03:25.368Z</time>
      </trkpt>
      <trkpt lat="47.543086" lon="7.947052">
        <ele>301.700413</ele>
        <time>2021-11-07T11:03:28.797Z</time>
      </trkpt>
      <trkpt lat="47.543056" lon="7.946935">
        <ele>301.905642</ele>
        <time>2021-11-07T11:03:31.639Z</time>
      </trkpt>
      <trkpt lat="47.543045" lon="7.946881">
        <ele>301.998134</ele>
        <time>2021-11-07T11:03:32.796Z</time>
      </trkpt>
      <trkpt lat="47.542982" lon="7.946547">
        <ele>302.566801</ele>
        <time>2021-11-07T11:03:38.195Z</time>
      </trkpt>
      <trkpt lat="47.542974" lon="7.946495">
        <ele>302.654256</ele>
        <time>2021-11-07T11:03:39.836Z</time>
      </trkpt>
      <trkpt lat="47.542960" lon="7.946400">
        <ele>302.813705</ele>
        <time>2021-11-07T11:03:41.902Z</time>
      </trkpt>
      <trkpt lat="47.542916" lon="7.945730">
        <ele>303.887656</ele>
        <time>2021-11-07T11:03:54.567Z</time>
      </trkpt>
      <trkpt lat="47.542913" lon="7.945267">
        <ele>304.428307</ele>
        <time>2021-11-07T11:04:03.062Z</time>
      </trkpt>
      <trkpt lat="47.543007" lon="7.943867">
        <ele>306.071094</ele>
        <time>2021-11-07T11:04:24.229Z</time>
      </trkpt>
      <trkpt lat="47.543161" lon="7.942213">
        <ele>306.521525</ele>
        <time>2021-11-07T11:04:42.636Z</time>
      </trkpt>
      <trkpt lat="47.543435" lon="7.940670">
        <ele>305.835587</ele>
        <time>2021-11-07T11:04:55.584Z</time>
      </trkpt>
      <trkpt lat="47.543826" lon="7.939433">
        <ele>304.345006</ele>
        <time>2021-11-07T11:05:05.985Z</time>
      </trkpt>
      <trkpt lat="47.544472" lon="7.937932">
        <ele>302.275653</ele>
        <time>2021-11-07T11:05:19.309Z</time>
      </trkpt>
      <trkpt lat="47.544705" lon="7.937395">
        <ele>301.530293</ele>
        <time>2021-11-07T11:05:24.148Z</time>
      </trkpt>
      <trkpt lat="47.544903" lon="7.936917">
        <ele>300.875477</ele>
        <time>2021-11-07T11:05:28.409Z</time>
      </trkpt>
      <trkpt lat="47.545074" lon="7.936484">
        <ele>300.289741</ele>
        <time>2021-11-07T11:05:32.240Z</time>
      </trkpt>
      <trkpt lat="47.545457" lon="7.935110">
        <ele>299.097077</ele>
        <time>2021-11-07T11:05:43.608Z</time>
      </trkpt>
      <trkpt lat="47.545674" lon="7.933625">
        <ele>298.267431</ele>
        <time>2021-11-07T11:05:56.688Z</time>
      </trkpt>
      <trkpt lat="47.545702" lon="7.933290">
        <ele>298.180781</ele>
        <time>2021-11-07T11:06:00.268Z</time>
      </trkpt>
      <trkpt lat="47.545724" lon="7.932758">
        <ele>298.679015</ele>
        <time>2021-11-07T11:06:06.535Z</time>
      </trkpt>
      <trkpt lat="47.545721" lon="7.931992">
        <ele>299.395067</ele>
        <time>2021-11-07T11:06:16.575Z</time>
      </trkpt>
      <trkpt lat="47.545696" lon="7.931497">
        <ele>299.859076</ele>
        <time>2021-11-07T11:06:23.780Z</time>
      </trkpt>
      <trkpt lat="47.545661" lon="7.930955">
        <ele>300.368039</ele>
        <time>2021-11-07T11:06:32.475Z</time>
      </trkpt>
      <trkpt lat="47.545563" lon="7.929641">
        <ele>301.478807</ele>
        <time>2021-11-07T11:06:54.815Z</time>
      </trkpt>
      <trkpt lat="47.545475" lon="7.928419">
        <ele>302.483095</ele>
        <time>2021-11-07T11:07:11.118Z</time>
      </trkpt>
      <trkpt lat="47.545421" lon="7.927686">
        <ele>302.164040</ele>
        <time>2021-11-07T11:07:17.221Z</time>
      </trkpt>
      <trkpt lat="47.545406" lon="7.927306">
        <ele>301.513490</ele>
        <time>2021-11-07T11:07:20.125Z</time>
      </trkpt>
      <trkpt lat="47.545407" lon="7.927001">
        <ele>300.992223</ele>
        <time>2021-11-07T11:07:22.412Z</time>
      </trkpt>
      <trkpt lat="47.545409" lon="7.926773">
        <ele>300.602526</ele>
        <time>2021-11-07T11:07:24.041Z</time>
      </trkpt>
      <trkpt lat="47.545417" lon="7.925848">
        <ele>299.021523</ele>
        <time>2021-11-07T11:07:30.376Z</time>
      </trkpt>
      <trkpt lat="47.545446" lon="7.925350">
        <ele>298.142087</ele>
        <time>2021-11-07T11:07:33.668Z</time>
      </trkpt>
      <trkpt lat="47.545466" lon="7.924880">
        <ele>297.031631</ele>
        <time>2021-11-07T11:07:36.721Z</time>
      </trkpt>
      <trkpt lat="47.545481" lon="7.924396">
        <ele>295.889161</ele>
        <time>2021-11-07T11:07:39.804Z</time>
      </trkpt>
      <trkpt lat="47.545521" lon="7.923709">
        <ele>294.263206</ele>
        <time>2021-11-07T11:07:44.330Z</time>
      </trkpt>
      <trkpt lat="47.545536" lon="7.923407">
        <ele>293.549168</ele>
        <time>2021-11-07T11:07:46.478Z</time>
      </trkpt>
      <trkpt lat="47.545553" lon="7.923142">
        <ele>292.921486</ele>
        <time>2021-11-07T11:07:48.309Z</time>
      </trkpt>
      <trkpt lat="47.545587" lon="7.922895">
        <ele>292.327076</ele>
        <time>2021-11-07T11:07:50.242Z</time>
      </trkpt>
      <trkpt lat="47.545641" lon="7.922610">
        <ele>291.851198</ele>
        <time>2021-11-07T11:07:52.388Z</time>
      </trkpt>
      <trkpt lat="47.545690" lon="7.922369">
        <ele>291.668046</ele>
        <time>2021-11-07T11:07:54.394Z</time>
      </trkpt>
      <trkpt lat="47.545699" lon="7.922325">
        <ele>291.634591</ele>
        <time>2021-11-07T11:07:54.688Z</time>
      </trkpt>
      <trkpt lat="47.545714" lon="7.922249">
        <ele>291.576973</ele>
        <time>2021-11-07T11:07:55.278Z</time>
      </trkpt>
      <trkpt lat="47.545778" lon="7.921947">
        <ele>291.346641</ele>
        <time>2021-11-07T11:07:57.981Z</time>
      </trkpt>
      <trkpt lat="47.545810" lon="7.921755">
        <ele>291.202732</ele>
        <time>2021-11-07T11:07:59.462Z</time>
      </trkpt>
      <trkpt lat="47.545881" lon="7.921096">
        <ele>290.717129</ele>
        <time>2021-11-07T11:08:04.920Z</time>
      </trkpt>
      <trkpt lat="47.545913" lon="7.920765">
        <ele>290.473814</ele>
        <time>2021-11-07T11:08:07.766Z</time>
      </trkpt>
      <trkpt lat="47.545973" lon="7.920313">
        <ele>290.138609</ele>
        <time>2021-11-07T11:08:12.157Z</time>
      </trkpt>
      <trkpt lat="47.546128" lon="7.919617">
        <ele>289.892034</ele>
        <time>2021-11-07T11:08:19.306Z</time>
      </trkpt>
      <trkpt lat="47.546262" lon="7.919081">
        <ele>289.769814</ele>
        <time>2021-11-07T11:08:25.344Z</time>
      </trkpt>
      <trkpt lat="47.546380" lon="7.918612">
        <ele>289.662789</ele>
        <time>2021-11-07T11:08:30.403Z</time>
      </trkpt>
      <trkpt lat="47.546821" lon="7.916867">
        <ele>289.173803</ele>
        <time>2021-11-07T11:08:46.229Z</time>
      </trkpt>
      <trkpt lat="47.547032" lon="7.916218">
        <ele>288.941051</ele>
        <time>2021-11-07T11:08:52.596Z</time>
      </trkpt>
      <trkpt lat="47.547091" lon="7.916039">
        <ele>288.876688</ele>
        <time>2021-11-07T11:08:54.398Z</time>
      </trkpt>
      <trkpt lat="47.547113" lon="7.915971">
        <ele>288.852324</ele>
        <time>2021-11-07T11:08:54.994Z</time>
      </trkpt>
      <trkpt lat="47.547423" lon="7.915080">
        <ele>288.619663</ele>
        <time>2021-11-07T11:09:04.581Z</time>
      </trkpt>
      <trkpt lat="47.547994" lon="7.913433">
        <ele>289.067845</ele>
        <time>2021-11-07T11:09:24.295Z</time>
      </trkpt>
      <trkpt lat="47.548027" lon="7.913334">
        <ele>289.094571</ele>
        <time>2021-11-07T11:09:25.654Z</time>
      </trkpt>
      <trkpt lat="47.548412" lon="7.912168">
        <ele>289.787631</ele>
        <time>2021-11-07T11:09:42.057Z</time>
      </trkpt>
      <trkpt lat="47.549012" lon="7.910340">
        <ele>291.326599</ele>
        <time>2021-11-07T11:10:09.049Z</time>
      </trkpt>
      <trkpt lat="47.549102" lon="7.910058">
        <ele>291.631378</ele>
        <time>2021-11-07T11:10:13.180Z</time>
      </trkpt>
      <trkpt lat="47.549195" lon="7.909756">
        <ele>291.955709</ele>
        <time>2021-11-07T11:10:17.472Z</time>
      </trkpt>
      <trkpt lat="47.549268" lon="7.909514">
        <ele>292.214696</ele>
        <time>2021-11-07T11:10:20.926Z</time>
      </trkpt>
      <trkpt lat="47.549520" lon="7.908678">
        <ele>293.109267</ele>
        <time>2021-11-07T11:10:32.766Z</time>
      </trkpt>
      <trkpt lat="47.549539" lon="7.908625">
        <ele>293.167901</ele>
        <time>2021-11-07T11:10:33.510Z</time>
      </trkpt>
      <trkpt lat="47.550497" lon="7.905558">
        <ele>298.343671</ele>
        <time>2021-11-07T11:11:28.333Z</time>
      </trkpt>
      <trkpt lat="47.550497" lon="7.905558">
        <ele>298.343671</ele>
        <time>2021-11-07T11:11:28.475Z</time>
      </trkpt>
      <trkpt lat="47.550497" lon="7.905558">
        <ele>298.343671</ele>
        <time>2021-11-07T11:11:28.486Z</time>
      </trkpt>
      <trkpt lat="47.550283" lon="7.905413">
        <ele>299.220535</ele>
        <time>2021-11-07T11:11:36.638Z</time>
      </trkpt>
      <trkpt lat="47.550067" lon="7.905245">
        <ele>300.129584</ele>
        <time>2021-11-07T11:11:45.337Z</time>
      </trkpt>
      <trkpt lat="47.549867" lon="7.905155">
        <ele>300.908464</ele>
        <time>2021-11-07T11:11:52.965Z</time>
      </trkpt>
      <trkpt lat="47.549868" lon="7.905010">
        <ele>301.273168</ele>
        <time>2021-11-07T11:11:56.377Z</time>
      </trkpt>
      <trkpt lat="47.550025" lon="7.904774">
        <ele>302.106577</ele>
        <time>2021-11-07T11:12:04.519Z</time>
      </trkpt>
      <trkpt lat="47.550195" lon="7.904400">
        <ele>303.240631</ele>
        <time>2021-11-07T11:12:15.559Z</time>
      </trkpt>
      <trkpt lat="47.550302" lon="7.904164">
        <ele>303.955669</ele>
        <time>2021-11-07T11:12:22.827Z</time>
      </trkpt>
      <trkpt lat="47.550498" lon="7.903445">
        <ele>305.891397</ele>
        <time>2021-11-07T11:12:42.380Z</time>
      </trkpt>
      <trkpt lat="47.550688" lon="7.902451">
        <ele>308.452258</ele>
        <time>2021-11-07T11:13:04.931Z</time>
      </trkpt>
      <trkpt lat="47.550757" lon="7.901591">
        <ele>310.599055</ele>
        <time>2021-11-07T11:13:24.759Z</time>
      </trkpt>
      <trkpt lat="47.550769" lon="7.901362">
        <ele>311.168413</ele>
        <time>2021-11-07T11:13:30.667Z</time>
      </trkpt>
      <trkpt lat="47.550801" lon="7.900244">
        <ele>314.326775</ele>
        <time>2021-11-07T11:13:55.064Z</time>
      </trkpt>
      <trkpt lat="47.550819" lon="7.898109">
        <ele>319.937775</ele>
        <time>2021-11-07T11:14:42.104Z</time>
      </trkpt>
      <trkpt lat="47.550648" lon="7.896481">
        <ele>322.792146</ele>
        <time>2021-11-07T11:15:09.759Z</time>
      </trkpt>
      <trkpt lat="47.550639" lon="7.896345">
        <ele>323.028889</ele>
        <time>2021-11-07T11:15:12.135Z</time>
      </trkpt>
      <trkpt lat="47.550660" lon="7.896255">
        <ele>323.193864</ele>
        <time>2021-11-07T11:15:12.935Z</time>
      </trkpt>
      <trkpt lat="47.550838" lon="7.895509">
        <ele>324.174321</ele>
        <time>2021-11-07T11:15:23.103Z</time>
      </trkpt>
      <trkpt lat="47.550878" lon="7.895158">
        <ele>324.488843</ele>
        <time>2021-11-07T11:15:27.166Z</time>
      </trkpt>
      <trkpt lat="47.550908" lon="7.894308">
        <ele>325.240903</ele>
        <time>2021-11-07T11:15:37.638Z</time>
      </trkpt>
      <trkpt lat="47.550892" lon="7.893176">
        <ele>326.514467</ele>
        <time>2021-11-07T11:15:52.355Z</time>
      </trkpt>
      <trkpt lat="47.550904" lon="7.891725">
        <ele>330.748209</ele>
        <time>2021-11-07T11:16:22.117Z</time>
      </trkpt>
      <trkpt lat="47.550915" lon="7.890600">
        <ele>334.090762</ele>
        <time>2021-11-07T11:16:50.957Z</time>
      </trkpt>
      <trkpt lat="47.550833" lon="7.889069">
        <ele>340.589646</ele>
        <time>2021-11-07T11:17:33.591Z</time>
      </trkpt>
      <trkpt lat="47.550831" lon="7.888611">
        <ele>342.527743</ele>
        <time>2021-11-07T11:17:46.161Z</time>
      </trkpt>
      <trkpt lat="47.550789" lon="7.887816">
        <ele>345.826698</ele>
        <time>2021-11-07T11:18:06.773Z</time>
      </trkpt>
      <trkpt lat="47.550758" lon="7.887295">
        <ele>347.810456</ele>
        <time>2021-11-07T11:18:20.595Z</time>
      </trkpt>
      <trkpt lat="47.550677" lon="7.886476">
        <ele>350.950006</ele>
        <time>2021-11-07T11:18:42.083Z</time>
      </trkpt>
      <trkpt lat="47.550548" lon="7.885799">
        <ele>353.618167</ele>
        <time>2021-11-07T11:18:59.286Z</time>
      </trkpt>
      <trkpt lat="47.550391" lon="7.885109">
        <ele>356.107217</ele>
        <time>2021-11-07T11:19:16.924Z</time>
      </trkpt>
      <trkpt lat="47.550332" lon="7.884727">
        <ele>357.224236</ele>
        <time>2021-11-07T11:19:25.614Z</time>
      </trkpt>
      <trkpt lat="47.550234" lon="7.883221">
        <ele>361.536931</ele>
        <time>2021-11-07T11:19:58.446Z</time>
      </trkpt>
      <trkpt lat="47.549927" lon="7.881490">
        <ele>366.126235</ele>
        <time>2021-11-07T11:20:30.709Z</time>
      </trkpt>
      <trkpt lat="47.549726" lon="7.880786">
        <ele>368.008243</ele>
        <time>2021-11-07T11:20:46.686Z</time>
      </trkpt>
      <trkpt lat="47.549327" lon="7.879547">
        <ele>372.439029</ele>
        <time>2021-11-07T11:21:16.470Z</time>
      </trkpt>
      <trkpt lat="47.549318" lon="7.879398">
        <ele>373.005956</ele>
        <time>2021-11-07T11:21:19.658Z</time>
      </trkpt>
      <trkpt lat="47.549140" lon="7.879391">
        <ele>374.005742</ele>
        <time>2021-11-07T11:21:26.529Z</time>
      </trkpt>
      <trkpt lat="47.548718" lon="7.879258">
        <ele>376.428204</ele>
        <time>2021-11-07T11:21:41.918Z</time>
      </trkpt>
      <trkpt lat="47.548422" lon="7.878959">
        <ele>378.439721</ele>
        <time>2021-11-07T11:21:56.678Z</time>
      </trkpt>
      <trkpt lat="47.548234" lon="7.878638">
        <ele>380.451966</ele>
        <time>2021-11-07T11:22:10.387Z</time>
      </trkpt>
      <trkpt lat="47.547992" lon="7.877974">
        <ele>385.555457</ele>
        <time>2021-11-07T11:22:32.667Z</time>
      </trkpt>
      <trkpt lat="47.547900" lon="7.878058">
        <ele>386.638270</ele>
        <time>2021-11-07T11:22:38.150Z</time>
      </trkpt>
      <trkpt lat="47.547680" lon="7.878061">
        <ele>388.842711</ele>
        <time>2021-11-07T11:22:46.238Z</time>
      </trkpt>
      <trkpt lat="47.547482" lon="7.877961">
        <ele>390.938733</ele>
        <time>2021-11-07T11:22:59.254Z</time>
      </trkpt>
      <trkpt lat="47.547171" lon="7.877756">
        <ele>394.349392</ele>
        <time>2021-11-07T11:23:23.582Z</time>
      </trkpt>
      <trkpt lat="47.546473" lon="7.877317">
        <ele>401.653497</ele>
        <time>2021-11-07T11:24:16.742Z</time>
      </trkpt>
      <trkpt lat="47.546289" lon="7.877305">
        <ele>403.375318</ele>
        <time>2021-11-07T11:24:24.930Z</time>
      </trkpt>
      <trkpt lat="47.546237" lon="7.877331">
        <ele>403.888389</ele>
        <time>2021-11-07T11:24:30.835Z</time>
      </trkpt>
      <trkpt lat="47.546187" lon="7.877404">
        <ele>404.544663</ele>
        <time>2021-11-07T11:24:35.089Z</time>
      </trkpt>
      <trkpt lat="47.546139" lon="7.877495">
        <ele>405.273439</ele>
        <time>2021-11-07T11:24:38.023Z</time>
      </trkpt>
      <trkpt lat="47.546009" lon="7.877701">
        <ele>407.052999</ele>
        <time>2021-11-07T11:24:47.559Z</time>
      </trkpt>
      <trkpt lat="47.545917" lon="7.877738">
        <ele>407.944205</ele>
        <time>2021-11-07T11:24:54.295Z</time>
      </trkpt>
      <trkpt lat="47.545676" lon="7.877750">
        <ele>410.198507</ele>
        <time>2021-11-07T11:25:01.357Z</time>
      </trkpt>
      <trkpt lat="47.545631" lon="7.877715">
        <ele>410.673650</ele>
        <time>2021-11-07T11:25:06.757Z</time>
      </trkpt>
      <trkpt lat="47.545631" lon="7.877715">
        <ele>410.673650</ele>
        <time>2021-11-07T11:25:06.783Z</time>
      </trkpt>
      <trkpt lat="47.545281" lon="7.876743">
        <ele>413.456402</ele>
        <time>2021-11-07T11:25:33.877Z</time>
      </trkpt>
      <trkpt lat="47.545014" lon="7.876180">
        <ele>412.228709</ele>
        <time>2021-11-07T11:25:39.664Z</time>
      </trkpt>
      <trkpt lat="47.544667" lon="7.875566">
        <ele>410.799877</ele>
        <time>2021-11-07T11:25:44.543Z</time>
      </trkpt>
      <trkpt lat="47.544459" lon="7.875225">
        <ele>409.979815</ele>
        <time>2021-11-07T11:25:47.280Z</time>
      </trkpt>
      <trkpt lat="47.544232" lon="7.874871">
        <ele>409.620960</ele>
        <time>2021-11-07T11:25:50.211Z</time>
      </trkpt>
      <trkpt lat="47.544070" lon="7.874957">
        <ele>409.620960</ele>
        <time>2021-11-07T11:25:52.404Z</time>
      </trkpt>
      <trkpt lat="47.543630" lon="7.874569">
        <ele>409.620960</ele>
        <time>2021-11-07T11:25:59.198Z</time>
      </trkpt>
      <trkpt lat="47.543315" lon="7.874529">
        <ele>409.620960</ele>
        <time>2021-11-07T11:26:03.441Z</time>
      </trkpt>
    </trkseg>
  </trk>
</gpx>